Flight Track Log - Related Links

Times and Time Zones

All times are in EDT time to prevent confusion due to time zone crossing. See the AFL150 flight status page for this flight to view local times or setup timezone preferences in your user account.

Time Position Orientation Groundspeed Altitude Reporting Facility
EDT Latitude Longitude Course Direction KTS MPH feet Rate Location/Type
Thu 06:36:03 AM 55.9780 37.4590 73° East 190 219 1,600  Level FlightAware ADS-B
Thu 06:36:33 AM 55.9850 37.5030 74° East 179 206 3,100 2,200 Climbing FlightAware ADS-B
Thu 06:37:03 AM 55.9910 37.5460 76° East 184 212 3,800 1,418 Climbing FlightAware ADS-B
Thu 06:37:28 AM 55.9960 37.5840 77° East 193 222 4,400 982 Climbing FlightAware ADS-B
Thu 06:37:58 AM 56.0040 37.6340 74° East 229 264 4,700 885 Climbing FlightAware ADS-B
Thu 06:38:29 AM 56.0130 37.6940 75° East 260 299 5,300 1,745 Climbing FlightAware ADS-B
Thu 06:38:53 AM 56.0290 37.7380 57° Northeast 262 302 6,300 2,308 Climbing FlightAware ADS-B
Thu 06:39:08 AM 56.0460 37.7480 18° North 265 305 6,800 2,160 Climbing FlightAware ADS-B
Thu 06:39:18 AM 56.0580 37.7470 357° North 269 310 7,200 2,160 Climbing FlightAware ADS-B
Thu 06:39:33 AM 56.0750 37.7320 334° Northwest 276 318 7,700 2,200 Climbing FlightAware ADS-B
Thu 06:39:48 AM 56.0860 37.7030 304° West 282 325 8,300 2,400 Climbing FlightAware ADS-B
Thu 06:40:03 AM 56.0890 37.6690 279° West 286 329 8,900 2,743 Climbing FlightAware ADS-B
Thu 06:40:23 AM 56.0980 37.6320 294° West 284 327 9,900 1,846 Climbing FlightAware ADS-B
Thu 06:41:08 AM 56.0680 37.5120 246° West 322 371 10,900 1,412 Climbing FlightAware ADS-B
Thu 06:41:48 AM 56.0550 37.4040 258° West 349 402 11,900 1,412 Climbing FlightAware ADS-B
Thu 06:42:33 AM 56.0520 37.2790 268° West 368 423 12,900 1,553 Climbing FlightAware ADS-B
Thu 06:43:13 AM 56.0700 37.1510 284° West 386 444 14,100 1,950 Climbing FlightAware ADS-B
Thu 06:43:53 AM 56.0830 37.0280 281° West 395 455 15,500 2,071 Climbing FlightAware ADS-B
Thu 06:44:37 AM 56.0970 36.8830 280° West 404 465 17,000 1,929 Climbing FlightAware ADS-B
Thu 06:45:17 AM 56.1110 36.7470 281° West 413 475 18,200 1,895 Climbing FlightAware ADS-B
Thu 06:45:53 AM 56.1240 36.6270 281° West 418 481 19,400 1,875 Climbing FlightAware ADS-B
Thu 06:46:37 AM 56.1380 36.4800 280° West 424 488 20,700 1,571 Climbing FlightAware ADS-B
Thu 06:47:17 AM 56.1530 36.3340 281° West 436 502 21,600 1,421 Climbing FlightAware ADS-B
Thu 06:47:53 AM 56.1650 36.2080 280° West 443 510 22,500 1,500 Climbing FlightAware ADS-B
Thu 06:48:33 AM 56.1790 36.0600 280° West 449 517 23,500 1,500 Climbing FlightAware ADS-B
Thu 06:49:13 AM 56.1940 35.9110 280° West 455 524 24,500 1,271 Climbing FlightAware ADS-B
Thu 06:49:58 AM 56.2090 35.7490 280° West 463 533 25,300 1,159 Climbing FlightAware ADS-B
Thu 06:50:41 AM 56.2240 35.5810 279° West 469 540 26,200 1,157 Climbing FlightAware ADS-B
Thu 06:51:21 AM 56.2380 35.4290 279° West 475 547 26,900 1,143 Climbing FlightAware ADS-B
Thu 06:52:05 AM 56.2540 35.2540 279° West 480 552 27,800 1,000 Climbing FlightAware ADS-B
Thu 06:52:45 AM 56.2680 35.0990 279° West 487 560 28,300 857 Climbing FlightAware ADS-B
Thu 06:53:29 AM 56.2840 34.9170 279° West 491 565 29,000 1,071 Climbing FlightAware ADS-B
Thu 06:54:09 AM 56.2980 34.7560 279° West 490 564 29,800 975 Climbing FlightAware ADS-B
Thu 06:54:49 AM 56.3110 34.6000 279° West 496 571 30,300 857 Climbing FlightAware ADS-B
Thu 06:55:33 AM 56.3250 34.4260 278° West 498 573 31,000 886 Climbing FlightAware ADS-B
Thu 06:56:17 AM 56.3410 34.2330 279° West 501 577 31,600 1,227 Climbing FlightAware ADS-B
Thu 06:57:01 AM 56.3540 34.0670 278° West 486 559 32,800 1,714 Climbing FlightAware ADS-B
Thu 06:57:41 AM 56.3670 33.9000 278° West 472 543 34,000 857 Climbing FlightAware ADS-B
Thu 06:58:25 AM 56.3800 33.7260 278° West 484 557 34,000  Level FlightAware ADS-B
Thu 06:59:01 AM 56.3910 33.5810 278° West 487 560 34,000  Level FlightAware ADS-B
Thu 06:59:49 AM 56.4060 33.3900 278° West 486 559 34,000  Level FlightAware ADS-B
Thu 07:00:18 AM 56.4140 33.2790 277° West 485 558 34,000  Level FlightAware ADS-B
Thu 07:01:05 AM 56.4280 33.0860 278° West 484 557 34,000  Level FlightAware ADS-B
Thu 07:01:38 AM 56.4370 32.9510 277° West 485 558 34,000  Level FlightAware ADS-B
Thu 07:02:18 AM 56.4480 32.7870 277° West 485 558 34,000  Level FlightAware ADS-B
Thu 07:03:03 AM 56.4610 32.6080 278° West 486 559 34,000  Level FlightAware ADS-B
Thu 07:03:38 AM 56.4700 32.4640 277° West 485 558 34,000  Level FlightAware ADS-B
Thu 07:04:23 AM 56.4820 32.2850 277° West 486 559 34,000  Level FlightAware ADS-B
Thu 07:05:08 AM 56.4930 32.1030 276° West 487 560 34,000  Level FlightAware ADS-B
Thu 07:05:58 AM 56.5060 31.9020 277° West 487 560 34,000  Level FlightAware ADS-B
Thu 07:06:33 AM 56.5130 31.7810 276° West 486 559 34,000  Level FlightAware ADS-B
Thu 07:07:23 AM 56.5230 31.6090 276° West 486 559 34,000  Level FlightAware ADS-B
Thu 07:07:59 AM 56.5300 31.4840 276° West 486 559 34,000  Level FlightAware ADS-B
Thu 07:08:35 AM 56.5370 31.3600 276° West 486 559 34,000  Level FlightAware ADS-B
Thu 07:09:23 AM 56.5470 31.1950 276° West 486 559 34,000  Level FlightAware ADS-B
Thu 07:09:59 AM 56.5540 31.0710 276° West 486 559 34,000  Level FlightAware ADS-B
Thu 07:10:47 AM 56.5640 30.9050 276° West 486 559 34,000  Level FlightAware ADS-B
Thu 07:11:22 AM 56.5710 30.7840 276° West 486 559 34,000  Level FlightAware ADS-B
Thu 07:12:11 AM 56.5800 30.6150 276° West 486 559 34,000  Level FlightAware ADS-B
Thu 07:12:48 AM 56.5880 30.4880 277° West 486 559 34,000  Level FlightAware ADS-B
Thu 07:13:24 AM 56.5950 30.3630 276° West 486 559 34,000  Level FlightAware ADS-B
Thu 07:14:24 AM 56.6070 30.1560 276° West 486 559 34,000  Level FlightAware ADS-B
Thu 07:15:00 AM 56.6140 30.0320 276° West 486 559 34,000  Level FlightAware ADS-B
Thu 07:15:36 AM 56.6210 29.9070 276° West 486 559 34,000  Level FlightAware ADS-B
Thu 07:16:36 AM 57.0870 29.7150 347° North 459 528 34,000  Level FlightAware ADS-B
Thu 07:17:15 AM 57.1350 29.5800 303° West 460 529 34,000  Level FlightAware ADS-B
Thu 07:17:59 AM 57.1840 29.4430 303° West 461 531 34,000  Level FlightAware ADS-B
Thu 07:18:39 AM 57.2330 29.3040 303° West 460 529 34,000  Level FlightAware ADS-B
Thu 07:19:19 AM 57.2810 29.1700 304° West 459 528 34,000  Level FlightAware ADS-B
Thu 07:19:59 AM 57.3260 29.0420 303° West 458 527 34,000  Level FlightAware ADS-B
Thu 07:20:45 AM 57.3770 28.8950 303° West 458 527 34,000  Level FlightAware ADS-B
Thu 07:21:32 AM 57.4340 28.7320 303° West 461 531 34,000  Level FlightAware ADS-B
Thu 07:22:12 AM 57.4790 28.6000 302° West 461 531 34,000  Level FlightAware ADS-B
Thu 07:22:52 AM 57.5250 28.4660 303° West 459 528 34,000  Level FlightAware ADS-B
Thu 07:23:32 AM 57.5710 28.3310 302° West 459 528 34,000  Level FlightAware ADS-B
Thu 07:24:12 AM 57.6150 28.2020 303° West 460 529 34,000  Level FlightAware ADS-B
Thu 07:24:57 AM 57.6670 28.0480 302° West 461 531 34,000  Level FlightAware ADS-B
Thu 07:25:37 AM 57.7120 27.9120 302° West 460 529 34,000  Level FlightAware ADS-B
Thu 07:26:22 AM 57.7620 27.7640 302° West 460 529 34,000  Level FlightAware ADS-B
Thu 07:27:07 AM 57.8130 27.6080 302° West 459 528 34,000  Level FlightAware ADS-B
Thu 07:27:42 AM 57.8460 27.4860 297° West 462 532 34,000  Level FlightAware ADS-B
Thu 07:28:27 AM 57.8800 27.3180 291° West 461 531 34,000  Level FlightAware ADS-B
Thu 07:29:12 AM 57.9130 27.1510 290° West 459 528 34,000  Level FlightAware ADS-B
Thu 07:29:52 AM 57.9440 26.9980 291° West 459 528 34,000  Level FlightAware ADS-B
Thu 07:30:37 AM 57.9780 26.8300 291° West 457 526 34,000  Level FlightAware ADS-B
Thu 07:31:12 AM 58.0020 26.7040 290° West 457 526 34,000  Level FlightAware ADS-B
Thu 07:31:57 AM 58.0360 26.5330 291° West 458 527 34,000  Level FlightAware ADS-B
Thu 07:32:37 AM 58.0630 26.3920 290° West 460 529 34,000  Level FlightAware ADS-B
Thu 07:33:22 AM 58.0980 26.2120 290° West 459 528 34,000  Level FlightAware ADS-B
Thu 07:34:02 AM 58.1270 26.0640 290° West 459 528 34,000  Level FlightAware ADS-B
Thu 07:34:49 AM 58.1590 25.8940 290° West 459 528 34,000  Level FlightAware ADS-B
Thu 07:35:27 AM 58.1860 25.7470 289° West 458 527 34,000  Level FlightAware ADS-B
Thu 07:36:12 AM 58.2190 25.5730 290° West 458 527 34,000  Level FlightAware ADS-B
Thu 07:36:52 AM 58.2460 25.4260 289° West 458 527 34,000  Level FlightAware ADS-B
Thu 07:37:32 AM 58.2750 25.2700 290° West 459 528 34,000  Level FlightAware ADS-B
Thu 07:38:12 AM 58.3030 25.1170 289° West 459 528 34,000  Level FlightAware ADS-B
Thu 07:38:52 AM 58.3300 24.9650 289° West 458 527 34,000  Level FlightAware ADS-B
Thu 07:39:32 AM 58.3570 24.8140 289° West 457 526 34,000  Level FlightAware ADS-B
Thu 07:40:29 AM 58.3960 24.5950 289° West 455 524 34,000  Level FlightAware ADS-B
Thu 07:41:10 AM 58.4230 24.4420 289° West 455 524 34,000  Level FlightAware ADS-B
Thu 07:41:52 AM 58.4480 24.2800 286° West 456 525 34,000  Level FlightAware ADS-B
Thu 07:42:22 AM 58.4650 24.1610 285° West 457 526 34,000  Level FlightAware ADS-B
Thu 07:43:06 AM 58.4900 23.9910 286° West 458 527 34,000  Level FlightAware ADS-B
Thu 07:43:52 AM 58.5170 23.8100 286° West 459 528 34,000  Level FlightAware ADS-B
Thu 07:44:32 AM 58.5400 23.6550 286° West 458 527 34,000  Level FlightAware ADS-B
Thu 07:45:16 AM 58.5650 23.4830 286° West 455 524 34,000  Level FlightAware ADS-B
Thu 07:45:56 AM 58.5880 23.3280 286° West 454 522 34,000  Level FlightAware ADS-B
Thu 07:46:40 AM 58.6110 23.1660 285° West 453 521 34,000  Level FlightAware ADS-B
Thu 07:47:14 AM 58.6300 23.0280 285° West 453 521 34,000  Level FlightAware ADS-B
Thu 07:47:54 AM 58.6520 22.8720 285° West 454 522 34,000  Level FlightAware ADS-B
Thu 07:48:36 AM 58.6750 22.7110 285° West 455 524 34,000  Level FlightAware ADS-B
Thu 07:49:14 AM 58.6950 22.5610 284° West 454 522 34,000  Level FlightAware ADS-B
Thu 07:49:56 AM 58.7170 22.4000 285° West 453 521 34,000  Level FlightAware ADS-B
Thu 07:50:37 AM 58.7390 22.2390 285° West 454 522 34,000  Level FlightAware ADS-B
Thu 07:51:14 AM 58.7580 22.0960 284° West 456 525 34,000  Level FlightAware ADS-B
Thu 07:51:59 AM 58.7810 21.9200 284° West 456 525 34,000  Level FlightAware ADS-B
Thu 07:52:40 AM 58.8020 21.7570 284° West 458 527 34,000  Level FlightAware ADS-B
Thu 07:53:24 AM 58.8250 21.5830 284° West 460 529 34,000  Level FlightAware ADS-B
Thu 07:54:05 AM 58.8460 21.4190 284° West 461 531 34,000  Level FlightAware ADS-B
Thu 07:54:41 AM 58.8670 21.2740 286° West 462 532 34,000  Level FlightAware ADS-B
Thu 07:55:25 AM 58.8970 21.1040 289° West 462 532 34,000  Level FlightAware ADS-B
Thu 07:56:06 AM 58.9240 20.9470 288° West 462 532 34,000  Level FlightAware ADS-B
Thu 07:56:45 AM 58.9490 20.7920 287° West 463 533 34,000  Level FlightAware ADS-B
Thu 07:57:30 AM 58.9790 20.6120 288° West 462 532 34,000  Level FlightAware ADS-B
Thu 07:58:09 AM 59.0030 20.4590 287° West 460 529 34,000  Level FlightAware ADS-B
Thu 07:58:53 AM 59.0310 20.2880 288° West 459 528 34,000  Level FlightAware ADS-B
Thu 07:59:34 AM 59.0570 20.1240 287° West 458 527 34,000  Level FlightAware ADS-B
Thu 08:00:15 AM 59.0810 19.9690 287° West 455 524 34,000  Level FlightAware ADS-B
Thu 08:00:57 AM 59.1070 19.8040 287° West 455 524 34,000  Level FlightAware ADS-B
Thu 08:01:40 AM 59.1330 19.6320 286° West 454 522 34,000  Level FlightAware ADS-B
Thu 08:02:34 AM 59.1650 19.4240 287° West 453 521 34,000  Level FlightAware ADS-B
Thu 08:03:13 AM 59.1880 19.2710 286° West 452 520 34,000  Level FlightAware ADS-B
Thu 08:04:01 AM 59.2160 19.0840 286° West 449 517 34,000  Level FlightAware ADS-B
Thu 08:04:42 AM 59.2400 18.9240 286° West 451 519 34,000  Level FlightAware ADS-B
Thu 08:05:25 AM 59.2640 18.7560 286° West 452 520 34,000  Level FlightAware ADS-B
Thu 08:06:04 AM 59.2860 18.6020 286° West 450 518 34,000  Level FlightAware ADS-B
Thu 08:06:50 AM 59.3120 18.4240 286° West 450 518 34,000  Level FlightAware ADS-B
Thu 08:07:29 AM 59.3340 18.2690 286° West 451 519 34,000  Level FlightAware ADS-B
Thu 08:08:13 AM 59.3580 18.0980 285° West 452 520 34,000  Level FlightAware ADS-B
Thu 08:08:54 AM 59.3810 17.9330 285° West 454 522 34,000  Level FlightAware ADS-B
Thu 08:09:35 AM 59.4030 17.7730 285° West 455 524 34,000  Level FlightAware ADS-B
Thu 08:10:16 AM 59.4250 17.6090 285° West 458 527 34,000  Level FlightAware ADS-B
Thu 08:10:51 AM 59.4440 17.4670 285° West 460 529 34,000  Level FlightAware ADS-B
Thu 08:11:32 AM 59.4660 17.3020 285° West 461 531 34,000  Level FlightAware ADS-B
Thu 08:12:16 AM 59.4890 17.1270 285° West 461 531 34,000  Level FlightAware ADS-B
Thu 08:12:50 AM 59.5080 16.9860 285° West 462 532 34,000  Level FlightAware ADS-B
Thu 08:13:34 AM 59.5300 16.8130 284° West 462 532 34,000  Level FlightAware ADS-B
Thu 08:14:14 AM 59.5510 16.6490 284° West 462 532 34,000  Level FlightAware ADS-B
Thu 08:14:56 AM 59.5730 16.4740 284° West 464 534 34,000  Level FlightAware ADS-B
Thu 08:15:30 AM 59.5900 16.3400 284° West 465 535 34,000  Level FlightAware ADS-B
Thu 08:16:08 AM 59.6090 16.1830 284° West 468 539 34,000  Level FlightAware ADS-B
Thu 08:16:39 AM 59.6250 16.0530 284° West 469 540 34,000  Level FlightAware ADS-B
Thu 08:17:19 AM 59.6450 15.8900 284° West 469 540 34,000  Level FlightAware ADS-B
Thu 08:18:04 AM 59.6680 15.7020 284° West 469 540 34,000  Level FlightAware ADS-B
Thu 08:18:44 AM 59.6880 15.5310 283° West 471 542 34,000  Level FlightAware ADS-B
Thu 08:19:28 AM 59.7090 15.3460 283° West 474 545 34,000  Level FlightAware ADS-B
Thu 08:20:08 AM 59.7290 15.1740 283° West 478 550 34,000  Level FlightAware ADS-B
Thu 08:20:52 AM 59.7500 14.9870 283° West 481 554 34,000  Level FlightAware ADS-B
Thu 08:21:32 AM 59.7700 14.8130 283° West 483 556 34,000  Level FlightAware ADS-B
Thu 08:22:08 AM 59.7860 14.6640 282° West 484 557 34,000  Level FlightAware ADS-B
Thu 08:22:56 AM 59.8160 14.4590 286° West 486 559 34,000  Level FlightAware ADS-B
Thu 08:23:36 AM 59.8440 14.2820 288° West 488 562 34,000  Level FlightAware ADS-B
Thu 08:24:13 AM 59.8670 14.1320 287° West 488 562 34,000  Level FlightAware ADS-B
Thu 08:24:57 AM 59.8970 13.9360 287° West 490 564 34,000  Level FlightAware ADS-B
Thu 08:25:36 AM 59.9230 13.7670 287° West 492 566 34,000  Level FlightAware ADS-B
Thu 08:26:16 AM 59.9490 13.5910 287° West 495 570 34,000  Level FlightAware ADS-B
Thu 08:26:52 AM 59.9720 13.4360 287° West 497 572 34,000  Level FlightAware ADS-B
Thu 08:27:36 AM 60.0010 13.2400 287° West 498 573 34,000  Level FlightAware ADS-B
Thu 08:28:15 AM 60.0260 13.0710 287° West 496 571 34,000  Level FlightAware ADS-B
Thu 08:29:01 AM 60.0550 12.8680 286° West 495 570 34,000  Level FlightAware ADS-B
Thu 08:29:41 AM 60.0800 12.6940 286° West 494 568 34,000  Level FlightAware ADS-B
Thu 08:30:22 AM 60.1050 12.5140 286° West 493 567 34,000  Level FlightAware ADS-B
Thu 08:30:59 AM 60.1270 12.3550 286° West 493 567 34,000  Level FlightAware ADS-B
Thu 08:31:42 AM 60.1540 12.1590 286° West 491 565 34,000  Level FlightAware ADS-B
Thu 08:32:22 AM 60.1780 11.9840 285° West 490 564 34,000  Level FlightAware ADS-B
Thu 08:33:06 AM 60.2040 11.7930 285° West 487 560 34,000  Level FlightAware ADS-B
Thu 08:33:46 AM 60.2270 11.6200 285° West 483 556 34,000  Level FlightAware ADS-B
Thu 08:34:30 AM 60.2520 11.4300 285° West 480 552 34,000  Level FlightAware ADS-B
Thu 08:35:10 AM 60.2740 11.2580 285° West 479 551 34,000  Level FlightAware ADS-B
Thu 08:35:54 AM 60.2980 11.0720 285° West 479 551 34,000  Level FlightAware ADS-B
Thu 08:36:33 AM 60.3200 10.9020 285° West 476 548 34,000  Level FlightAware ADS-B
Thu 08:37:11 AM 60.3400 10.7380 284° West 475 547 34,000  Level FlightAware ADS-B
Thu 08:37:57 AM 60.3640 10.5420 284° West 476 548 34,000  Level FlightAware ADS-B
Thu 08:38:41 AM 60.3880 10.3520 284° West 474 545 34,000  Level FlightAware ADS-B
Thu 08:39:21 AM 60.4080 10.1800 283° West 474 545 34,000  Level FlightAware ADS-B
Thu 08:40:01 AM 60.4290 10.0090 284° West 473 544 34,000  Level FlightAware ADS-B
Thu 08:40:41 AM 60.4490 9.8380 283° West 473 544 34,000  Level FlightAware ADS-B
Thu 08:41:21 AM 60.4690 9.6640 283° West 473 544 34,000  Level FlightAware ADS-B
Thu 08:42:01 AM 60.4890 9.4930 283° West 473 544 34,000  Level FlightAware ADS-B
Thu 08:42:47 AM 60.5120 9.2930 283° West 471 542 34,000  Level FlightAware ADS-B
Thu 08:43:27 AM 60.5300 9.1250 282° West 472 543 34,000  Level FlightAware ADS-B
Thu 08:44:11 AM 60.5520 8.9300 283° West 473 544 34,000  Level FlightAware ADS-B
Thu 08:44:51 AM 60.5700 8.7610 282° West 471 542 34,000  Level FlightAware ADS-B
Thu 08:45:27 AM 60.5870 8.6030 282° West 472 543 34,000  Level FlightAware ADS-B
Thu 08:46:07 AM 60.6060 8.4280 283° West 472 543 34,000  Level FlightAware ADS-B
Thu 08:46:51 AM 60.6250 8.2390 282° West 471 542 34,000  Level FlightAware ADS-B
Thu 08:47:27 AM 60.6420 8.0810 282° West 470 541 34,000  Level FlightAware ADS-B
Thu 08:48:07 AM 60.6590 7.9090 281° West 470 541 34,000  Level FlightAware ADS-B
Thu 08:48:51 AM 60.6780 7.7210 282° West 471 542 34,000  Level FlightAware ADS-B
Thu 08:49:23 AM 60.6920 7.5820 282° West 471 542 34,000  Level FlightAware ADS-B
Thu 08:50:07 AM 60.7110 7.3900 282° West 470 541 34,000  Level FlightAware ADS-B
Thu 08:50:47 AM 60.7270 7.2200 281° West 471 542 34,000  Level FlightAware ADS-B
Thu 08:51:33 AM 60.7470 7.0150 281° West 470 541 34,000  Level FlightAware ADS-B
Thu 08:52:12 AM 60.7620 6.8500 281° West 471 542 34,000  Level FlightAware ADS-B
Thu 08:53:09 AM 60.7850 6.6020 281° West 471 542 34,000  Level FlightAware ADS-B
Thu 08:53:53 AM 60.8000 6.4340 280° West 471 542 34,000  Level FlightAware ADS-B
Thu 08:54:25 AM 60.8140 6.2770 280° West 470 541 34,000  Level FlightAware ADS-B
Thu 08:55:06 AM 60.8310 6.0860 280° West 470 541 34,000  Level FlightAware ADS-B
Thu 08:55:51 AM 60.8470 5.8910 280° West 471 542 34,000  Level FlightAware ADS-B
Thu 08:56:23 AM 60.8580 5.7600 280° West 470 541 34,000  Level FlightAware ADS-B
Thu 08:57:09 AM 60.8760 5.5510 280° West 470 541 34,000  Level FlightAware ADS-B
Thu 08:57:49 AM 60.8900 5.3730 279° West 470 541 34,000  Level FlightAware ADS-B
Thu 08:58:24 AM 60.9030 5.2200 280° West 470 541 34,000  Level FlightAware ADS-B
Thu 08:59:04 AM 60.9170 5.0450 279° West 470 541 34,000  Level FlightAware ADS-B
Thu 08:59:49 AM 60.9320 4.8480 279° West 470 541 34,000  Level FlightAware ADS-B
Thu 09:00:28 AM 60.9450 4.6700 279° West 472 543 34,000  Level FlightAware ADS-B
Thu 09:01:09 AM 60.9580 4.4960 279° West 471 542 34,000  Level FlightAware ADS-B
Thu 09:01:54 AM 60.9730 4.2960 279° West 471 542 34,000  Level FlightAware ADS-B
Thu 09:02:35 AM 60.9860 4.1130 278° West 469 540 34,000  Level FlightAware ADS-B
Thu 09:03:15 AM 60.9980 3.9400 278° West 469 540 34,000  Level FlightAware ADS-B
Thu 09:03:55 AM 61.0110 3.7600 279° West 470 541 34,000  Level FlightAware ADS-B
Thu 09:04:49 AM 61.0270 3.5210 278° West 471 542 34,000  Level FlightAware ADS-B
Thu 09:05:28 AM 61.0390 3.3480 278° West 471 542 34,000  Level FlightAware ADS-B
Thu 09:06:14 AM 61.0670 3.1550 287° West 476 548 34,000  Level FlightAware ADS-B
Thu 09:06:54 AM 61.1010 2.9910 293° West 476 548 34,000  Level FlightAware ADS-B
Thu 09:07:33 AM 61.1340 2.8290 293° West 477 549 34,000  Level FlightAware ADS-B
Thu 09:08:13 AM 61.1710 2.6490 293° West 478 550 34,000  Level FlightAware ADS-B
Thu 09:08:54 AM 61.2010 2.4960 292° West 479 551 34,000  Level FlightAware ADS-B
Thu 09:09:35 AM 61.2390 2.3060 293° West 478 550 34,000  Level FlightAware ADS-B
Thu 09:10:15 AM 61.2710 2.1440 292° West 476 548 34,000  Level FlightAware ADS-B
Thu 09:10:55 AM 61.3030 1.9810 292° West 475 547 34,000  Level FlightAware ADS-B
Thu 09:11:56 AM 61.3550 1.7150 292° West 473 544 34,000  Level FlightAware ADS-B
Thu 09:13:10 AM 61.4090 1.4360 292° West 473 544 34,000  Level FlightAware ADS-B
Thu 09:13:46 AM 61.4350 1.2980 292° West 473 544 34,000  Level FlightAware ADS-B
Thu 09:14:42 AM 61.4850 1.0240 291° West 472 543 34,000  Level FlightAware ADS-B
Thu 09:15:30 AM 61.5170 0.8500 291° West 472 543 34,000  Level FlightAware ADS-B
Thu 09:16:06 AM 61.5410 0.7190 291° West 472 543 34,000  Level FlightAware ADS-B
Thu 09:18:00 AM 61.5612 0.2690 276° West  Level Estimated
Thu 09:18:20 AM 61.6570 0.0800 276° West 474 545 34,000  Level FlightAware ADS-B
Thu 09:19:00 AM 61.6850 -0.0770 291° West 475 547 34,000  Level FlightAware ADS-B
Thu 09:19:45 AM 61.7220 -0.2880 290° West 478 550 34,000  Level FlightAware ADS-B
Thu 09:21:24 AM 61.7840 -0.6510 290° West 483 556 34,000  Level FlightAware ADS-B
Thu 09:22:08 AM 61.8300 -0.9230 290° West 486 559 34,000  Level FlightAware ADS-B
Thu 09:22:46 AM 61.8570 -1.0870 289° West 487 560 34,000  Level FlightAware ADS-B
Thu 09:23:33 AM 61.8930 -1.3010 290° West 489 563 34,000  Level FlightAware ADS-B
Thu 09:24:12 AM 61.9220 -1.4780 289° West 489 563 34,000  Level FlightAware ADS-B
Thu 09:25:07 AM 61.9530 -1.6700 289° West 490 564 34,000  Level FlightAware ADS-B
Thu 09:25:44 AM 61.9790 -1.8350 289° West 490 564 34,000  Level FlightAware ADS-B
Thu 09:26:28 AM 62.0210 -2.0980 289° West 492 566 34,000  Level FlightAware ADS-B
Thu 09:27:04 AM 62.0470 -2.2660 288° West 492 566 34,000  Level FlightAware ADS-B
Thu 09:27:51 AM 62.0810 -2.4820 289° West 492 566 34,000  Level FlightAware ADS-B
Thu 09:28:27 AM 62.1050 -2.6440 288° West 492 566 34,000  Level FlightAware ADS-B
Thu 09:29:09 AM 62.1340 -2.8350 288° West 492 566 34,000  Level FlightAware ADS-B
Thu 09:29:47 AM 62.1610 -3.0130 288° West 492 566 34,000  Level FlightAware ADS-B
Thu 09:30:31 AM 62.1910 -3.2180 287° West 492 566 34,000  Level FlightAware ADS-B
Thu 09:31:14 AM 62.2210 -3.4200 288° West 492 566 34,000  Level FlightAware ADS-B
Thu 09:31:55 AM 62.2480 -3.6050 287° West 491 565 34,000  Level FlightAware ADS-B
Thu 09:32:39 AM 62.2770 -3.8110 287° West 491 565 34,000  Level FlightAware ADS-B
Thu 09:33:15 AM 62.3010 -3.9800 287° West 491 565 34,000  Level FlightAware ADS-B
Thu 09:33:55 AM 62.3270 -4.1660 287° West 492 566 34,000  Level FlightAware ADS-B
Thu 09:34:39 AM 62.3560 -4.3710 287° West 493 567 34,000  Level FlightAware ADS-B
Thu 09:35:15 AM 62.3790 -4.5440 286° West 492 566 34,000  Level FlightAware ADS-B
Thu 09:35:55 AM 62.4050 -4.7320 287° West 493 567 34,000  Level FlightAware ADS-B
Thu 09:36:35 AM 62.4300 -4.9200 286° West 493 567 34,000  Level FlightAware ADS-B
Thu 09:37:14 AM 62.4540 -5.1030 286° West 492 566 34,000  Level FlightAware ADS-B
Thu 09:37:59 AM 62.4810 -5.3130 286° West 493 567 34,000  Level FlightAware ADS-B
Thu 09:38:43 AM 62.5080 -5.5210 286° West 493 567 34,000  Level FlightAware ADS-B
Thu 09:39:23 AM 62.5320 -5.7110 285° West 494 568 34,000  Level FlightAware ADS-B
Thu 09:40:01 AM 62.5550 -5.8950 285° West 496 571 34,000  Level FlightAware ADS-B
Thu 09:40:41 AM 62.5790 -6.0860 285° West 496 571 34,000  Level FlightAware ADS-B
Thu 09:41:22 AM 62.6030 -6.2790 285° West 496 571 34,000  Level FlightAware ADS-B
Thu 09:42:03 AM 62.6270 -6.4800 285° West 496 571 34,000  Level FlightAware ADS-B
Thu 09:42:38 AM 62.6470 -6.6460 285° West 495 570 34,000  Level FlightAware ADS-B
Thu 09:43:21 AM 62.6710 -6.8520 284° West 495 570 34,000  Level FlightAware ADS-B
Thu 09:44:03 AM 62.6950 -7.0560 284° West 495 570 34,000  Level FlightAware ADS-B
Thu 09:44:39 AM 62.7150 -7.2320 284° West 496 571 34,000  Level FlightAware ADS-B
Thu 09:45:19 AM 62.7370 -7.4260 284° West 496 571 34,000  Level FlightAware ADS-B
Thu 09:46:03 AM 62.7600 -7.6370 283° West 495 570 34,000  Level FlightAware ADS-B
Thu 09:46:43 AM 62.7810 -7.8280 284° West 494 568 34,000  Level FlightAware ADS-B
Thu 09:47:22 AM 62.7980 -7.9860 283° West 494 568 34,000  Level FlightAware ADS-B
Thu 09:48:10 AM 62.8190 -8.1850 283° West 494 568 34,000  Level FlightAware ADS-B
Thu 09:49:06 AM 62.8530 -8.5070 283° West 493 567 34,000  Level FlightAware ADS-B
Thu 09:49:51 AM 62.8750 -8.7200 283° West 494 568 34,000  Level FlightAware ADS-B
Thu 09:50:37 AM 62.9010 -8.9680 283° West 494 568 34,000  Level FlightAware ADS-B
Thu 09:51:16 AM 62.9200 -9.1570 283° West 494 568 34,000  Level FlightAware ADS-B
Thu 09:52:00 AM 62.9410 -9.3690 282° West 493 567 34,000  Level FlightAware ADS-B
Thu 09:52:37 AM 62.9580 -9.5460 282° West 493 567 34,000  Level FlightAware ADS-B
Thu 09:53:22 AM 62.9790 -9.7690 282° West 493 567 34,000  Level FlightAware ADS-B
Thu 09:54:06 AM 62.9990 -9.9830 282° West 494 568 34,000  Level FlightAware ADS-B
Thu 09:54:44 AM 63.0230 -10.1670 286° West 493 567 34,000  Level FlightAware ADS-B
Thu 09:55:28 AM 63.0530 -10.3790 287° West 493 567 34,000  Level FlightAware ADS-B
Thu 09:56:14 AM 63.0820 -10.5960 287° West 491 565 34,000  Level FlightAware ADS-B
Thu 09:56:52 AM 63.1070 -10.7830 287° West 489 563 34,000  Level FlightAware ADS-B
Thu 09:57:37 AM 63.1360 -10.9990 287° West 488 562 34,000  Level FlightAware ADS-B
Thu 09:58:14 AM 63.1580 -11.1700 286° West 489 563 34,000  Level FlightAware ADS-B
Thu 09:59:02 AM 63.1880 -11.4020 286° West 487 560 34,000  Level FlightAware ADS-B
Thu 09:59:42 AM 63.2120 -11.5960 285° West 486 559 34,000  Level FlightAware ADS-B
Thu 10:00:26 AM 63.2390 -11.8070 286° West 485 558 34,000  Level FlightAware ADS-B
Thu 10:01:07 AM 63.2630 -12.0040 285° West 486 559 34,000  Level FlightAware ADS-B
Thu 10:01:47 AM 63.2870 -12.1970 286° West 486 559 34,000  Level FlightAware ADS-B
Thu 10:02:32 AM 63.3120 -12.4030 285° West 486 559 34,000  Level FlightAware ADS-B
Thu 10:03:12 AM 63.3350 -12.6000 285° West 486 559 34,000  Level FlightAware ADS-B
Thu 10:03:52 AM 63.3580 -12.7950 285° West 485 558 34,000  Level FlightAware ADS-B
Thu 10:04:36 AM 63.3830 -13.0070 285° West 485 558 34,000  Level FlightAware ADS-B
Thu 10:05:16 AM 63.4050 -13.2000 284° West 483 556 34,000  Level FlightAware ADS-B
Thu 10:05:52 AM 63.4240 -13.3720 284° West 483 556 34,000  Level FlightAware ADS-B
Thu 10:06:38 AM 63.4490 -13.5950 284° West 483 556 34,000  Level FlightAware ADS-B
Thu 10:07:14 AM 63.4680 -13.7700 284° West 483 556 34,000  Level FlightAware ADS-B
Thu 10:07:50 AM 63.4870 -13.9440 284° West 484 557 34,000  Level FlightAware ADS-B
Thu 10:08:34 AM 63.5090 -14.1600 283° West 482 555 34,000  Level FlightAware ADS-B
Thu 10:09:15 AM 63.5260 -14.3620 281° West 482 555 34,000  Level FlightAware ADS-B
Thu 10:10:00 AM 63.5440 -14.5790 281° West 481 554 34,000  Level FlightAware ADS-B
Thu 10:10:40 AM 63.5600 -14.7690 281° West 480 552 34,000  Level FlightAware ADS-B
Thu 10:11:24 AM 63.5780 -14.9900 280° West 479 551 34,000  Level FlightAware ADS-B
Thu 10:12:02 AM 63.5930 -15.1740 280° West 480 552 34,000  Level FlightAware ADS-B
Thu 10:12:36 AM 63.6070 -15.3450 281° West 481 554 34,000  Level FlightAware ADS-B
Thu 10:13:14 AM 63.6200 -15.5140 280° West 482 555 34,000  Level FlightAware ADS-B
Thu 10:13:49 AM 63.6340 -15.6960 280° West 483 556 34,000  Level FlightAware ADS-B
Thu 10:14:24 AM 63.6470 -15.8690 280° West 482 555 34,000  Level FlightAware ADS-B
Thu 10:15:03 AM 63.6620 -16.0670 280° West 481 554 34,000  Level FlightAware ADS-B
Thu 10:15:40 AM 63.6750 -16.2500 279° West 481 554 34,000  Level FlightAware ADS-B
Thu 10:16:18 AM 63.6880 -16.4360 279° West 481 554 34,000  Level FlightAware ADS-B
Thu 10:17:05 AM 63.7040 -16.6660 279° West 480 552 34,000  Level FlightAware ADS-B
Thu 10:17:45 AM 63.7180 -16.8660 279° West 481 554 34,000  Level FlightAware ADS-B
Thu 10:18:26 AM 63.7310 -17.0650 278° West 482 555 34,000  Level FlightAware ADS-B
Thu 10:19:12 AM 63.7460 -17.2920 279° West 482 555 34,000  Level FlightAware ADS-B
Thu 10:19:50 AM 63.7580 -17.4830 278° West 482 555 34,000  Level FlightAware ADS-B
Thu 10:20:28 AM 63.7680 -17.6310 279° West 483 556 34,000  Level FlightAware ADS-B
Thu 10:21:08 AM 63.7820 -17.8620 278° West 483 556 34,000  Level FlightAware ADS-B
Thu 10:21:50 AM 63.7940 -18.0730 277° West 481 554 34,000  Level FlightAware ADS-B
Thu 10:22:36 AM 63.8080 -18.3090 278° West 472 543 34,000  Level FlightAware ADS-B
Thu 10:23:16 AM 63.8190 -18.4940 278° West 468 539 34,000  Level FlightAware ADS-B
Thu 10:23:56 AM 63.8290 -18.6860 277° West 468 539 34,000  Level FlightAware ADS-B
Thu 10:24:40 AM 63.8410 -18.9000 277° West 470 541 34,000  Level FlightAware ADS-B
Thu 10:25:22 AM 63.8510 -19.1050 276° West 471 542 34,000  Level FlightAware ADS-B
Thu 10:26:02 AM 63.8620 -19.3140 277° West 470 541 34,000  Level FlightAware ADS-B
Thu 10:26:39 AM 63.8700 -19.4860 276° West 470 541 34,000  Level FlightAware ADS-B
Thu 10:27:23 AM 63.8810 -19.7070 277° West 469 540 34,000  Level FlightAware ADS-B
Thu 10:28:03 AM 63.8900 -19.8970 276° West 468 539 34,000  Level FlightAware ADS-B
Thu 10:28:43 AM 63.8990 -20.0900 276° West 468 539 34,000  Level FlightAware ADS-B
Thu 10:29:23 AM 63.9070 -20.2840 275° West 468 539 34,000  Level FlightAware ADS-B
Thu 10:30:05 AM 63.9160 -20.4870 276° West 468 539 34,000  Level FlightAware ADS-B
Thu 10:30:51 AM 63.9250 -20.7160 275° West 470 541 34,000  Level FlightAware ADS-B
Thu 10:31:23 AM 63.9310 -20.8660 275° West 471 542 34,000  Level FlightAware ADS-B
Thu 10:32:07 AM 63.9400 -21.0870 275° West 472 543 34,000  Level FlightAware ADS-B
Thu 10:32:47 AM 63.9470 -21.2890 275° West 472 543 34,000  Level FlightAware ADS-B
Thu 10:33:26 AM 63.9540 -21.4860 275° West 472 543 34,000  Level FlightAware ADS-B
Thu 10:34:07 AM 63.9610 -21.6900 275° West 471 542 34,000  Level FlightAware ADS-B
Thu 10:34:51 AM 63.9680 -21.9060 274° West 471 542 34,000  Level FlightAware ADS-B
Thu 10:35:26 AM 63.9730 -22.0730 274° West 472 543 34,000  Level FlightAware ADS-B
Thu 10:36:08 AM 63.9800 -22.2840 274° West 473 544 34,000  Level FlightAware ADS-B
Thu 10:36:49 AM 63.9860 -22.4910 274° West 472 543 34,000  Level FlightAware ADS-B
Thu 10:37:30 AM 63.9910 -22.6830 273° West 471 542 34,000  Level FlightAware ADS-B
Thu 10:38:15 AM 63.9970 -22.9170 273° West 478 550 34,000  Level FlightAware ADS-B
Thu 10:38:51 AM 64.0010 -23.0990 273° West 481 554 34,000  Level FlightAware ADS-B
Thu 10:39:38 AM 64.0060 -23.3240 273° West 479 551 34,000  Level FlightAware ADS-B
Thu 10:40:13 AM 64.0100 -23.5100 273° West 478 550 34,000  Level FlightAware ADS-B
Thu 10:40:54 AM 64.0140 -23.7060 273° West 478 550 34,000  Level FlightAware ADS-B
Thu 10:41:34 AM 64.0180 -23.9100 273° West 479 551 34,000  Level FlightAware ADS-B
Thu 10:42:14 AM 64.0220 -24.1120 273° West 478 550 34,000  Level FlightAware ADS-B
Thu 10:42:55 AM 64.0250 -24.3220 272° West 478 550 34,000  Level FlightAware ADS-B
Thu 10:43:35 AM 64.0280 -24.5240 272° West 478 550 34,000  Level FlightAware ADS-B
Thu 10:44:15 AM 64.0310 -24.7240 272° West 476 548 34,000  Level FlightAware ADS-B
Thu 10:44:59 AM 64.0330 -24.9430 271° West 475 547 34,000  Level FlightAware ADS-B
Thu 10:45:41 AM 64.0350 -25.1510 271° West 474 545 34,000  Level FlightAware ADS-B
Thu 10:46:09 AM 64.0370 -25.2940 272° West 474 545 34,000  Level FlightAware ADS-B
Thu 10:46:49 AM 64.0380 -25.4920 271° West 472 543 34,000  Level FlightAware ADS-B
Thu 10:47:35 AM 64.0400 -25.7210 271° West 471 542 34,000  Level FlightAware ADS-B
Thu 10:48:17 AM 64.0410 -25.9260 271° West 471 542 34,000  Level FlightAware ADS-B
Thu 10:48:58 AM 64.0410 -26.1340 270° West 470 541 34,000  Level FlightAware ADS-B
Thu 10:49:37 AM 64.0420 -26.3230 271° West 468 539 34,000  Level FlightAware ADS-B
Thu 10:50:21 AM 64.0420 -26.5410 270° West 468 539 34,000  Level FlightAware ADS-B
Thu 10:50:59 AM 64.0420 -26.7230 270° West 468 539 34,000 -429 Level FlightAware ADS-B
Thu 10:51:45 AM 64.0410 -26.9540 270° West 468 539 33,400 -690 Descending FlightAware ADS-B
Thu 10:52:26 AM 64.0400 -27.1580 269° West 468 539 33,000 -643 Descending FlightAware ADS-B
Thu 10:53:09 AM 64.0390 -27.3650 269° West 462 532 32,500 -607 Descending FlightAware ADS-B
Thu 10:53:55 AM 64.0380 -27.5870 270° West 458 527 32,100 -349 Descending FlightAware ADS-B
Thu 10:54:35 AM 64.0360 -27.7790 269° West 456 525 32,000 -75 Descending FlightAware ADS-B
Thu 10:55:15 AM 64.0350 -27.9680 269° West 457 526 32,000  Level FlightAware ADS-B
Thu 10:55:55 AM 64.0330 -28.1620 269° West 456 525 32,000  Level FlightAware ADS-B
Thu 10:56:37 AM 64.0300 -28.3630 268° West 456 525 32,000  Level FlightAware ADS-B
Thu 10:57:23 AM 64.0270 -28.5820 268° West 456 525 32,000  Level FlightAware ADS-B
Thu 10:58:07 AM 64.0240 -28.7940 268° West 455 524 32,000  Level FlightAware ADS-B
Thu 10:58:41 AM 64.0220 -28.9540 268° West 455 524 32,000  Level FlightAware ADS-B
Thu 10:59:17 AM 64.0190 -29.1280 268° West 454 522 32,000  Level FlightAware ADS-B
Thu 10:59:58 AM 64.0150 -29.3270 267° West 455 524 32,000  Level FlightAware ADS-B
Thu 11:00:47 AM 64.0100 -29.5590 267° West 454 522 32,000  Level FlightAware ADS-B
Thu 11:01:27 AM 64.0060 -29.7490 267° West 453 521 32,000  Level FlightAware ADS-B
Thu 11:02:05 AM 64.0060 -29.9150 270° West 451 519 32,000  Level FlightAware ADS-B
Thu 11:02:47 AM 64.0200 -30.1290 279° West 458 527 32,000  Level FlightAware ADS-B
Thu 11:03:29 AM 64.0450 -30.3230 286° West 463 533 32,000  Level FlightAware ADS-B
Thu 11:04:09 AM 64.0700 -30.5100 287° West 463 533 32,000  Level FlightAware ADS-B
Thu 11:04:53 AM 64.0970 -30.7140 287° West 461 531 32,000  Level FlightAware ADS-B
Thu 11:05:25 AM 64.1170 -30.8630 287° West 462 532 32,000  Level FlightAware ADS-B
Thu 11:06:01 AM 64.1390 -31.0300 287° West 462 532 32,000  Level FlightAware ADS-B
Thu 11:06:49 AM 64.1680 -31.2560 287° West 461 531 32,000  Level FlightAware ADS-B
Thu 11:07:32 AM 64.1940 -31.4590 286° West 462 532 32,000  Level FlightAware ADS-B
Thu 11:08:23 AM 64.2210 -31.6760 286° West 462 532 32,000  Level FlightAware ADS-B
Thu 11:09:12 AM 64.2460 -31.8730 286° West 462 532 32,000  Level FlightAware ADS-B
Thu 11:09:49 AM 64.2640 -32.0210 286° West 462 532 32,000  Level FlightAware ADS-B
Thu 11:10:37 AM 64.2880 -32.2140 286° West 462 532 32,000  Level FlightAware ADS-B
Thu 11:11:13 AM 64.3060 -32.3590 286° West 462 532 32,000  Level FlightAware ADS-B
Thu 11:11:51 AM 64.3250 -32.5130 286° West 462 532 32,000  Level FlightAware ADS-B
Thu 11:12:38 AM 64.3490 -32.7020 286° West 462 532 32,000  Level FlightAware ADS-B
Thu 11:13:15 AM 64.3670 -32.8510 286° West 462 532 32,000  Level FlightAware ADS-B
Thu 11:14:03 AM 64.3910 -33.0450 286° West 462 532 32,000  Level FlightAware ADS-B
Thu 11:14:41 AM 64.4100 -33.1990 286° West 462 532 32,000  Level FlightAware ADS-B
Thu 11:15:29 AM 64.4340 -33.3930 286° West 462 532 32,000  Level FlightAware ADS-B
Thu 11:16:06 AM 64.4530 -33.5430 286° West 462 532 32,000  Level FlightAware ADS-B
Thu 11:16:54 AM 64.4770 -33.7370 286° West 462 532 32,000  Level FlightAware ADS-B
Thu 11:17:30 AM 64.4950 -33.8830 286° West 462 532 32,000 17 Level FlightAware ADS-B
Thu 11:20:00 AM 64.3566 -34.4556 241° Southwest  Level Estimated
Thu 11:21:00 AM 64.3006 -34.6831 240° Southwest  Level Estimated
Thu 11:22:00 AM 64.2396 -34.9284 240° Southwest  Level Estimated
Thu 11:23:00 AM 64.1782 -35.1726 240° Southwest  Level Estimated
Thu 11:24:00 AM 64.1163 -35.4157 240° Southwest  Level Estimated
Thu 11:25:00 AM 64.0541 -35.6577 240° Southwest  Level Estimated
Thu 11:26:00 AM 63.9915 -35.8986 239° Southwest  Level Estimated
Thu 11:27:00 AM 63.9284 -36.1385 239° Southwest  Level Estimated
Thu 11:28:00 AM 63.8650 -36.3773 239° Southwest  Level Estimated
Thu 11:29:00 AM 63.8011 -36.6150 239° Southwest  Level Estimated
Thu 11:30:00 AM 63.7369 -36.8516 239° Southwest  Level Estimated
Thu 11:31:00 AM 63.6723 -37.0872 238° Southwest  Level Estimated
Thu 11:32:00 AM 63.6073 -37.3216 238° Southwest  Level Estimated
Thu 11:33:00 AM 63.5420 -37.5550 238° Southwest  Level Estimated
Thu 11:34:00 AM 63.4762 -37.7874 238° Southwest  Level Estimated
Thu 11:35:00 AM 63.4101 -38.0187 238° Southwest  Level Estimated
Thu 11:36:00 AM 63.3436 -38.2489 237° Southwest  Level Estimated
Thu 11:37:00 AM 63.2767 -38.4780 237° Southwest  Level Estimated
Thu 11:38:00 AM 63.2095 -38.7061 237° Southwest  Level Estimated
Thu 11:39:00 AM 63.1419 -38.9331 237° Southwest  Level Estimated
Thu 11:40:00 AM 63.0740 -39.1590 236° Southwest  Level Estimated
Thu 11:41:00 AM 63.0057 -39.3839 236° Southwest  Level Estimated
Thu 11:42:00 AM 62.9370 -39.6077 236° Southwest  Level Estimated
Thu 11:43:00 AM 62.8680 -39.8305 236° Southwest  Level Estimated
Thu 11:44:00 AM 62.7986 -40.0523 236° Southwest  Level Estimated
Thu 11:45:00 AM 62.7289 -40.2730 235° Southwest  Level Estimated
Thu 11:46:00 AM 62.6589 -40.4926 235° Southwest  Level Estimated
Thu 11:47:00 AM 62.5885 -40.7113 235° Southwest  Level Estimated
Thu 11:48:00 AM 62.5177 -40.9289 235° Southwest  Level Estimated
Thu 11:49:00 AM 62.4466 -41.1454 235° Southwest  Level Estimated
Thu 11:50:00 AM 62.3752 -41.3609 235° Southwest  Level Estimated
Thu 11:51:00 AM 62.3035 -41.5754 234° Southwest  Level Estimated
Thu 11:52:00 AM 62.2314 -41.7889 234° Southwest  Level Estimated
Thu 11:53:00 AM 62.1590 -42.0014 234° Southwest  Level Estimated
Thu 11:54:00 AM 62.0863 -42.2128 234° Southwest  Level Estimated
Thu 11:55:00 AM 62.0132 -42.4232 234° Southwest  Level Estimated
Thu 11:56:00 AM 61.9399 -42.6326 233° Southwest  Level Estimated
Thu 11:57:00 AM 61.8662 -42.8410 233° Southwest  Level Estimated
Thu 11:58:00 AM 61.7922 -43.0484 233° Southwest  Level Estimated
Thu 11:59:00 AM 61.7179 -43.2548 233° Southwest  Level Estimated
Thu 12:00:00 PM 61.6433 -43.4603 233° Southwest  Level Estimated
Thu 12:01:00 PM 61.5684 -43.6647 232° Southwest  Level Estimated
Thu 12:02:00 PM 61.4932 -43.8681 232° Southwest  Level Estimated
Thu 12:03:00 PM 61.4176 -44.0706 232° Southwest  Level Estimated
Thu 12:04:00 PM 61.3418 -44.2720 232° Southwest  Level Estimated
Thu 12:05:00 PM 61.2657 -44.4725 232° Southwest  Level Estimated
Thu 12:06:00 PM 61.1893 -44.6721 232° Southwest  Level Estimated
Thu 12:07:00 PM 61.1126 -44.8706 231° Southwest  Level Estimated
Thu 12:08:00 PM 61.0356 -45.0682 231° Southwest  Level Estimated
Thu 12:09:00 PM 60.9583 -45.2649 231° Southwest  Level Estimated
Thu 12:10:00 PM 60.8808 -45.4605 231° Southwest  Level Estimated
Thu 12:11:00 PM 60.8029 -45.6553 231° Southwest  Level Estimated
Thu 12:12:00 PM 60.7248 -45.8491 231° Southwest  Level Estimated
Thu 12:13:00 PM 60.6464 -46.0419 230° Southwest  Level Estimated
Thu 12:14:00 PM 60.5677 -46.2338 230° Southwest  Level Estimated
Thu 12:15:00 PM 60.4887 -46.4248 230° Southwest  Level Estimated
Thu 12:15:12 PM 63.9590 -50.2720 230° Southwest 443 510 33,000  Level FlightAware ADS-B
Thu 12:15:57 PM 63.9280 -50.4660 250° West 443 510 33,000  Level FlightAware ADS-B
Thu 12:16:00 PM 60.4095 -46.6148 230° Southwest  Level Estimated
Thu 12:16:37 PM 63.9000 -50.6400 250° West 445 512 33,000  Level FlightAware ADS-B
Thu 12:17:18 PM 63.8730 -50.8140 251° West 447 514 33,000  Level FlightAware ADS-B
Thu 12:18:01 PM 63.8410 -51.0090 250° West 448 516 33,000  Level FlightAware ADS-B
Thu 12:18:44 PM 63.8100 -51.1990 250° West 448 516 33,000  Level FlightAware ADS-B
Thu 12:19:26 PM 63.7800 -51.3850 250° West 449 517 33,000  Level FlightAware ADS-B
Thu 12:20:10 PM 63.7480 -51.5770 249° West 450 518 33,000  Level FlightAware ADS-B
Thu 12:20:46 PM 63.7210 -51.7360 249° West 452 520 33,000  Level FlightAware ADS-B
Thu 12:21:34 PM 63.6850 -51.9480 249° West 455 524 33,000  Level FlightAware ADS-B
Thu 12:22:09 PM 63.6600 -52.0990 250° West 454 522 33,000  Level FlightAware ADS-B
Thu 12:22:58 PM 63.6220 -52.3160 249° West 455 524 33,000  Level FlightAware ADS-B
Thu 12:23:39 PM 63.5920 -52.4900 249° West 455 524 33,000  Level FlightAware ADS-B
Thu 12:24:18 PM 63.5610 -52.6670 249° West 457 526 33,000  Level FlightAware ADS-B
Thu 12:25:03 PM 63.5270 -52.8580 248° West 459 528 33,000  Level FlightAware ADS-B
Thu 12:25:44 PM 63.4930 -53.0460 248° West 460 529 33,000  Level FlightAware ADS-B
Thu 12:26:20 PM 63.4640 -53.2050 248° West 460 529 33,000  Level FlightAware ADS-B
Thu 12:27:08 PM 63.4260 -53.4170 248° West 462 532 33,000  Level FlightAware ADS-B
Thu 12:27:48 PM 63.3930 -53.5930 247° West 464 534 33,000  Level FlightAware ADS-B
Thu 12:28:17 PM 63.3700 -53.7160 247° West 463 533 33,000  Level FlightAware ADS-B
Thu 12:28:51 PM 63.3420 -53.8650 247° West 462 532 33,000  Level FlightAware ADS-B
Thu 12:29:36 PM 63.3060 -54.0570 247° West 463 533 33,000  Level FlightAware ADS-B
Thu 12:30:13 PM 63.2740 -54.2250 247° West 462 532 33,000  Level FlightAware ADS-B
Thu 12:30:54 PM 63.2420 -54.3870 246° West 463 533 33,000  Level FlightAware ADS-B
Thu 12:31:42 PM 63.2070 -54.5640 246° West 463 533 33,000  Level FlightAware ADS-B
Thu 12:32:20 PM 63.1790 -54.7040 246° West 463 533 33,000  Level FlightAware ADS-B
Thu 12:33:07 PM 63.1440 -54.8770 246° West 463 533 33,000  Level FlightAware ADS-B
Thu 12:33:43 PM 63.1170 -55.0100 246° West 463 533 33,000  Level FlightAware ADS-B
Thu 12:34:19 PM 63.0900 -55.1420 246° West 463 533 33,000  Level FlightAware ADS-B
Thu 12:34:57 PM 63.0620 -55.2820 246° West 463 533 33,000  Level FlightAware ADS-B
Thu 12:35:34 PM 63.0350 -55.4180 246° West 463 533 33,000  Level FlightAware ADS-B
Thu 12:36:22 PM 62.9990 -55.5940 246° West 463 533 33,000  Level FlightAware ADS-B
Thu 12:36:57 PM 62.9730 -55.7220 246° West 463 533 33,000  Level FlightAware ADS-B
Thu 12:37:43 PM 62.9390 -55.8900 246° West 463 533 33,000  Level FlightAware ADS-B
Thu 12:38:31 PM 62.9040 -56.0650 246° West 463 533 33,000  Level FlightAware ADS-B
Thu 12:39:08 PM 62.8760 -56.2000 246° West 463 533 33,000  Level FlightAware ADS-B
Thu 12:40:08 PM 62.8320 -56.4190 246° West 463 533 33,000  Level FlightAware ADS-B
Thu 12:40:54 PM 62.7167 -56.9500 246° West 460 529 33,000  Level Gander Center
Thu 12:41:33 PM 62.7000 -57.1333 259° West 470 541 33,000  Level Gander Center
Thu 12:42:33 PM 62.6333 -57.3833 240° Southwest 490 564 33,000  Level Gander Center
Thu 12:43:33 PM 62.5833 -57.6500 248° West 490 564 33,000  Level Gander Center
Thu 12:44:33 PM 62.5167 -57.9000 240° Southwest 490 564 33,000 50 Level Gander Center
Thu 12:45:33 PM 62.4333 -58.1667 236° Southwest 490 564 33,100 500 Climbing Gander Center
Thu 12:46:33 PM 62.4000 -58.4167 254° West 490 564 34,000 486 Climbing Gander Center
Thu 12:47:24 PM 62.3333 -58.5667 226° Southwest 480 552 34,000  Level Montreal Center
Thu 12:48:24 PM 62.2833 -58.8167 247° West 480 552 34,000  Level Montreal Center
Thu 12:48:54 PM 62.2333 -59.0333 244° Southwest 480 552 34,000  Level Gander Center
Thu 12:49:33 PM 62.2167 -59.1833 257° West 470 541 34,000  Level Gander Center
Thu 12:50:33 PM 62.1500 -59.4333 240° Southwest 480 552 34,000  Level Gander Center
Thu 12:51:33 PM 62.0833 -59.6833 240° Southwest 480 552 34,000  Level Gander Center
Thu 12:52:33 PM 62.0167 -59.9333 240° Southwest 480 552 34,000  Level Gander Center
Thu 12:53:33 PM 61.9167 -60.1167 221° Southwest 470 541 34,000  Level Gander Center
Thu 12:54:24 PM 61.8500 -60.2167 215° Southwest 470 541 34,000  Level Montreal Center
Thu 12:55:24 PM 61.7500 -60.4167 223° Southwest 470 541 34,000  Level Montreal Center
Thu 12:56:24 PM 61.6500 -60.5833 218° Southwest 470 541 34,000  Level Montreal Center
Thu 12:57:24 PM 61.5500 -60.7667 221° Southwest 470 541 34,000  Level Montreal Center
Thu 12:58:24 PM 61.4500 -60.9500 221° Southwest 470 541 34,000  Level Montreal Center
Thu 12:59:24 PM 61.3500 -61.1500 224° Southwest 470 541 34,000  Level Montreal Center
Thu 01:00:24 PM 61.2667 -61.3000 221° Southwest 470 541 34,000  Level Montreal Center
Thu 01:00:54 PM 61.2000 -61.4500 227° Southwest 470 541 34,000  Level Gander Center
Thu 01:01:54 PM 61.1000 -61.6333 222° Southwest 460 529 34,000  Level Gander Center
Thu 01:02:54 PM 61.0000 -61.8000 219° Southwest 470 541 34,000  Level Gander Center
Thu 01:03:33 PM 60.9500 -61.9000 224° Southwest 460 529 34,000  Level Gander Center
Thu 01:04:24 PM 60.8667 -62.0000 210° Southwest 470 541 34,000  Level Montreal Center
Thu 01:04:54 PM 60.8167 -62.1333 232° Southwest 470 541 34,000  Level Gander Center
Thu 01:06:33 PM 60.6667 -62.4333 224° Southwest 470 541 34,000  Level Gander Center
Thu 01:07:24 PM 60.5667 -62.5667 213° Southwest 460 529 34,000  Level Montreal Center
Thu 01:08:24 PM 60.4833 -62.7500 227° Southwest 460 529 34,000  Level Montreal Center
Thu 01:08:54 PM 60.4333 -62.9000 236° Southwest 470 541 34,000  Level Gander Center
Thu 01:09:33 PM 60.3833 -63.0333 233° Southwest 470 541 34,000  Level Gander Center
Thu 01:10:24 PM 60.3000 -63.1333 211° Southwest 460 529 34,000  Level Montreal Center
Thu 01:11:24 PM 60.2167 -63.3000 225° Southwest 470 541 34,000  Level Montreal Center
Thu 01:12:24 PM 60.1167 -63.5000 225° Southwest 470 541 34,000  Level Montreal Center
Thu 01:13:24 PM 60.0333 -63.6833 228° Southwest 470 541 34,000  Level Montreal Center
Thu 01:14:24 PM 59.9500 -63.8500 225° Southwest 470 541 34,000  Level Montreal Center
Thu 01:15:24 PM 59.8667 -64.0500 230° Southwest 460 529 34,000  Level Montreal Center
Thu 01:15:54 PM 59.8000 -64.2000 229° Southwest 470 541 34,000  Level Gander Center
Thu 01:16:54 PM 59.7167 -64.3833 228° Southwest 470 541 34,000  Level Gander Center
Thu 01:17:24 PM 59.6667 -64.4167 199° South 460 529 34,000  Level Montreal Center
Thu 01:18:24 PM 59.5667 -64.5833 220° Southwest 470 541 34,000  Level Montreal Center
Thu 01:19:24 PM 59.4833 -64.7833 231° Southwest 460 529 34,000  Level Montreal Center
Thu 01:20:24 PM 59.3833 -64.9500 220° Southwest 470 541 34,000  Level Montreal Center
Thu 01:21:24 PM 59.3000 -65.1333 228° Southwest 460 529 34,000  Level Montreal Center
Thu 01:21:54 PM 59.2500 -65.2500 230° Southwest 460 529 34,000  Level Gander Center
Thu 01:22:33 PM 59.1833 -65.3833 226° Southwest 460 529 34,000  Level Gander Center
Thu 01:23:33 PM 59.0833 -65.5667 223° Southwest 460 529 34,000  Level Gander Center
Thu 01:24:33 PM 59.0000 -65.7167 223° Southwest 460 529 34,000  Level Gander Center
Thu 01:25:33 PM 58.9000 -65.9000 223° Southwest 460 529 34,000  Level Gander Center
Thu 01:26:24 PM 58.8333 -65.9667 207° Southwest 460 529 34,000  Level Montreal Center
Thu 01:27:24 PM 58.7500 -66.1500 229° Southwest 460 529 34,000  Level Montreal Center
Thu 01:28:24 PM 58.6333 -66.3167 217° Southwest 450 518 34,000  Level Montreal Center
Thu 01:29:24 PM 58.5500 -66.4667 223° Southwest 450 518 34,000  Level Montreal Center
Thu 01:30:24 PM 58.4500 -66.6167 218° Southwest 450 518 34,000  Level Montreal Center
Thu 01:31:24 PM 58.3667 -66.8000 229° Southwest 450 518 34,000  Level Montreal Center
Thu 01:32:24 PM 58.2833 -66.9500 223° Southwest 440 506 34,000  Level Montreal Center
Thu 01:33:24 PM 58.1833 -67.1167 221° Southwest 440 506 34,000  Level Montreal Center
Thu 01:34:24 PM 58.1000 -67.2667 224° Southwest 440 506 34,000  Level Montreal Center
Thu 01:35:24 PM 58.0000 -67.4333 221° Southwest 440 506 34,000  Level Montreal Center
Thu 01:36:24 PM 57.9167 -67.5833 224° Southwest 440 506 34,000  Level Montreal Center
Thu 01:37:24 PM 57.8167 -67.7333 219° Southwest 440 506 34,000  Level Montreal Center
Thu 01:38:24 PM 57.7167 -67.8833 219° Southwest 450 518 34,000  Level Montreal Center
Thu 01:39:24 PM 57.6167 -68.0667 225° Southwest 450 518 34,000  Level Montreal Center
Thu 01:40:24 PM 57.5333 -68.2167 224° Southwest 450 518 34,000  Level Montreal Center
Thu 01:41:24 PM 57.4333 -68.3500 216° Southwest 450 518 34,000  Level Montreal Center
Thu 01:42:24 PM 57.3500 -68.5000 224° Southwest 440 506 34,000  Level Montreal Center
Thu 01:43:24 PM 57.2500 -68.6500 219° Southwest 440 506 34,000  Level Montreal Center
Thu 01:44:24 PM 57.1667 -68.8167 227° Southwest 440 506 34,000  Level Montreal Center
Thu 01:45:24 PM 57.0667 -68.9667 219° Southwest 440 506 34,000  Level Montreal Center
Thu 01:46:24 PM 56.9667 -69.1000 216° Southwest 440 506 34,000  Level Montreal Center
Thu 01:47:24 PM 56.9000 -69.2333 228° Southwest 430 495 34,000  Level Montreal Center
Thu 01:48:24 PM 56.7833 -69.3833 215° Southwest 430 495 34,000  Level Montreal Center
Thu 01:49:24 PM 56.7000 -69.5500 228° Southwest 440 506 34,000  Level Montreal Center
Thu 01:50:24 PM 56.6000 -69.6833 216° Southwest 440 506 34,000  Level Montreal Center
Thu 01:51:24 PM 56.5000 -69.8333 220° Southwest 440 506 34,000  Level Montreal Center
Thu 01:52:24 PM 56.4167 -69.9667 222° Southwest 440 506 34,000  Level Montreal Center
Thu 01:53:24 PM 56.3167 -70.1000 217° Southwest 440 506 34,000  Level Montreal Center
Thu 01:54:24 PM 56.2167 -70.2333 217° Southwest 440 506 34,000  Level Montreal Center
Thu 01:55:24 PM 56.1333 -70.4000 228° Southwest 440 506 34,000  Level Montreal Center
Thu 01:56:24 PM 56.0500 -70.5333 222° Southwest 440 506 34,000  Level Montreal Center
Thu 01:57:24 PM 55.9500 -70.6667 217° Southwest 440 506 34,000  Level Montreal Center
Thu 01:58:24 PM 55.8500 -70.8000 217° Southwest 440 506 34,000  Level Montreal Center
Thu 01:59:24 PM 55.7667 -70.9333 222° Southwest 440 506 34,000  Level Montreal Center
Thu 02:00:24 PM 55.6667 -71.0667 217° Southwest 440 506 34,000  Level Montreal Center
Thu 02:01:24 PM 55.5500 -71.2333 219° Southwest 440 506 34,000  Level Montreal Center
Thu 02:02:24 PM 55.4667 -71.3667 222° Southwest 440 506 34,000  Level Montreal Center
Thu 02:03:24 PM 55.3667 -71.4833 214° Southwest 440 506 34,000  Level Montreal Center
Thu 02:04:24 PM 55.2667 -71.6167 217° Southwest 440 506 34,000  Level Montreal Center
Thu 02:05:24 PM 55.1667 -71.7500 217° Southwest 440 506 34,000  Level Montreal Center
Thu 02:06:24 PM 55.0667 -71.9000 221° Southwest 440 506 34,000  Level Montreal Center
Thu 02:07:24 PM 54.9833 -72.0333 223° Southwest 440 506 34,000  Level Montreal Center
Thu 02:08:24 PM 54.8833 -72.1500 214° Southwest 430 495 34,000  Level Montreal Center
Thu 02:09:24 PM 54.8000 -72.2833 223° Southwest 430 495 34,000  Level Montreal Center
Thu 02:10:24 PM 54.7000 -72.4000 214° Southwest 430 495 34,000  Level Montreal Center
Thu 02:11:24 PM 54.6000 -72.5333 218° Southwest 430 495 34,000  Level Montreal Center
Thu 02:13:24 PM 54.4167 -72.8167 222° Southwest 430 495 34,000  Level Montreal Center
Thu 02:14:24 PM 54.3167 -72.9333 214° Southwest 430 495 34,000  Level Montreal Center
Thu 02:15:24 PM 54.2167 -73.0500 214° Southwest 430 495 34,000  Level Montreal Center
Thu 02:16:24 PM 54.1167 -73.1833 218° Southwest 430 495 34,000  Level Montreal Center
Thu 02:17:24 PM 54.0333 -73.3000 219° Southwest 430 495 34,000  Level Montreal Center
Thu 02:18:24 PM 53.9333 -73.4167 214° Southwest 420 483 34,000  Level Montreal Center
Thu 02:19:24 PM 53.8333 -73.5333 215° Southwest 430 495 34,000  Level Montreal Center
Thu 02:20:24 PM 53.7333 -73.6500 215° Southwest 430 495 34,000 250 Level Montreal Center
Thu 02:21:24 PM 53.6333 -73.7500 211° Southwest 430 495 34,500 950 Climbing Montreal Center
Thu 02:22:24 PM 53.5167 -73.8333 203° Southwest 430 495 35,900 750 Climbing Montreal Center
Thu 02:23:24 PM 53.4167 -73.9333 211° Southwest 430 495 36,000 50 Climbing Montreal Center
Thu 02:24:24 PM 53.3000 -74.0500 211° Southwest 430 495 36,000  Level Montreal Center
Thu 02:25:24 PM 53.1833 -74.1333 203° Southwest 430 495 36,000  Level Montreal Center
Thu 02:26:24 PM 53.0833 -74.2333 211° Southwest 430 495 36,000  Level Montreal Center
Thu 02:27:24 PM 53.0000 -74.3167 211° Southwest 420 483 36,000  Level Montreal Center
Thu 02:28:24 PM 52.8833 -74.4000 203° Southwest 420 483 36,000  Level Montreal Center
Thu 02:29:24 PM 52.7667 -74.4667 199° South 420 483 36,000  Level Montreal Center
Thu 02:30:24 PM 52.6833 -74.5500 211° Southwest 420 483 36,000  Level Montreal Center
Thu 02:31:24 PM 52.5500 -74.6333 201° Southwest 430 495 36,000  Level Montreal Center
Thu 02:32:24 PM 52.4500 -74.7167 207° Southwest 420 483 36,000  Level Montreal Center
Thu 02:33:24 PM 52.3333 -74.8000 204° Southwest 420 483 36,000  Level Montreal Center
Thu 02:34:24 PM 52.2333 -74.9000 211° Southwest 410 472 36,000  Level Montreal Center
Thu 02:35:24 PM 52.1333 -74.9833 207° Southwest 420 483 36,000  Level Montreal Center
Thu 02:36:24 PM 52.0167 -75.0667 204° Southwest 430 495 36,000  Level Montreal Center
Thu 02:37:24 PM 51.9167 -75.1500 207° Southwest 420 483 36,000  Level Montreal Center
Thu 02:38:24 PM 51.8167 -75.2333 207° Southwest 420 483 36,000  Level Montreal Center
Thu 02:39:24 PM 51.7167 -75.3167 207° Southwest 420 483 36,000  Level Montreal Center
Thu 02:40:24 PM 51.6000 -75.4000 204° Southwest 420 483 36,000  Level Montreal Center
Thu 02:41:24 PM 51.5000 -75.4833 207° Southwest 420 483 36,000  Level Montreal Center
Thu 02:42:24 PM 51.3833 -75.5667 204° Southwest 420 483 36,000  Level Montreal Center
Thu 02:43:24 PM 51.2833 -75.6500 208° Southwest 420 483 36,000  Level Montreal Center
Thu 02:44:24 PM 51.1833 -75.7167 203° Southwest 420 483 36,000  Level Montreal Center
Thu 02:45:24 PM 51.0833 -75.8000 208° Southwest 420 483 36,000  Level Montreal Center
Thu 02:46:24 PM 50.9833 -75.8500 197° South 420 483 36,000  Level Montreal Center
Thu 02:47:24 PM 50.8667 -75.9333 204° Southwest 420 483 36,000  Level Montreal Center
Thu 02:48:24 PM 50.7667 -76.0167 208° Southwest 420 483 36,000  Level Montreal Center
Thu 02:49:24 PM 50.6500 -76.1000 204° Southwest 420 483 36,000  Level Montreal Center
Thu 02:50:24 PM 50.5500 -76.1833 208° Southwest 420 483 36,000  Level Montreal Center
Thu 02:51:24 PM 50.4500 -76.2500 203° Southwest 420 483 36,000  Level Montreal Center
Thu 02:52:24 PM 50.3333 -76.3333 205° Southwest 420 483 36,000  Level Montreal Center
Thu 02:53:24 PM 50.2333 -76.4167 208° Southwest 420 483 36,000  Level Montreal Center
Thu 02:54:24 PM 50.1333 -76.4833 203° Southwest 420 483 36,000  Level Montreal Center
Thu 02:55:24 PM 50.0000 -76.5667 202° Southwest 420 483 36,000  Level Montreal Center
Thu 02:56:24 PM 49.9000 -76.6500 208° Southwest 420 483 36,000  Level Montreal Center
Thu 02:57:24 PM 49.8000 -76.7167 203° Southwest 420 483 36,000  Level Montreal Center
Thu 02:58:24 PM 49.6833 -76.8000 205° Southwest 420 483 36,000  Level Montreal Center
Thu 02:59:24 PM 49.5833 -76.8667 203° Southwest 420 483 36,000  Level Montreal Center
Thu 03:00:24 PM 49.4833 -76.9500 208° Southwest 420 483 36,000  Level Montreal Center
Thu 03:01:24 PM 49.3667 -77.0167 200° South 450 518 36,000 -50 Level Montreal Center
Thu 03:02:24 PM 49.2667 -77.1000 209° Southwest 410 472 35,900  Descending Montreal Center
Thu 03:03:24 PM 49.1500 -77.1667 200° South 420 483 36,000 50 Climbing Montreal Center
Thu 03:04:24 PM 49.0500 -77.2500 209° Southwest 430 495 36,000  Level Montreal Center
Thu 03:05:24 PM 48.9167 -77.3167 198° South 430 495 36,000  Level Montreal Center
Thu 03:06:24 PM 48.8167 -77.4000 209° Southwest 430 495 36,000  Level Montreal Center
Thu 03:07:24 PM 48.7000 -77.4667 201° Southwest 430 495 36,000  Level Montreal Center
Thu 03:13:51 PM 48.0070 -77.9200 201° Southwest 438 504 36,000  Level FlightAware ADS-B
Thu 03:14:57 PM 47.8970 -77.9830 201° Southwest 438 504 36,000  Level FlightAware ADS-B
Thu 03:15:33 PM 47.8390 -78.0160 201° Southwest 438 504 36,000  Level FlightAware ADS-B
Thu 03:16:17 PM 47.7280 -78.0820 202° Southwest 435 501 36,000  Level FlightAware ADS-B
Thu 03:17:03 PM 47.6400 -78.1330 201° Southwest 434 499 36,000  Level FlightAware ADS-B
Thu 03:17:44 PM 47.5640 -78.1760 201° Southwest 434 499 36,000  Level FlightAware ADS-B
Thu 03:18:30 PM 47.4770 -78.2260 201° Southwest 433 498 36,000  Level FlightAware ADS-B
Thu 03:19:05 PM 47.4110 -78.2640 201° Southwest 432 497 36,000  Level FlightAware ADS-B
Thu 03:19:50 PM 47.3270 -78.3120 201° Southwest 432 497 36,000  Level FlightAware ADS-B
Thu 03:20:30 PM 47.2530 -78.3540 201° Southwest 433 498 36,000  Level FlightAware ADS-B
Thu 03:21:14 PM 47.1720 -78.4000 201° Southwest 432 497 36,000  Level FlightAware ADS-B
Thu 03:21:50 PM 47.1030 -78.4390 201° Southwest 431 496 36,000  Level FlightAware ADS-B
Thu 03:22:37 PM 47.0150 -78.4880 201° Southwest 431 496 36,000  Level FlightAware ADS-B
Thu 03:23:14 PM 46.9480 -78.5260 201° Southwest 433 498 36,000  Level FlightAware ADS-B
Thu 03:23:52 PM 46.8770 -78.5660 201° Southwest 436 502 36,000  Level FlightAware ADS-B
Thu 03:24:36 PM 46.7930 -78.6130 201° Southwest 440 506 36,000  Level FlightAware ADS-B
Thu 03:25:18 PM 46.7120 -78.6580 201° Southwest 443 510 36,000  Level FlightAware ADS-B
Thu 03:25:57 PM 46.6380 -78.6990 201° Southwest 446 513 36,000  Level FlightAware ADS-B
Thu 03:26:41 PM 46.5520 -78.7460 201° Southwest 447 514 36,000  Level FlightAware ADS-B
Thu 03:27:26 PM 46.4660 -78.7940 201° Southwest 447 514 36,000  Level FlightAware ADS-B
Thu 03:28:07 PM 46.3860 -78.8380 201° Southwest 445 512 36,000  Level FlightAware ADS-B
Thu 03:28:48 PM 46.3080 -78.8800 200° South 445 512 36,000  Level FlightAware ADS-B
Thu 03:29:23 PM 46.2400 -78.9180 201° Southwest 441 507 36,000  Level FlightAware ADS-B
Thu 03:30:07 PM 46.1580 -78.9620 200° South 440 506 36,000  Level FlightAware ADS-B
Thu 03:30:49 PM 46.0780 -79.0060 201° Southwest 442 509 36,000  Level FlightAware ADS-B
Thu 03:31:25 PM 46.0070 -79.0440 200° South 443 510 36,000  Level FlightAware ADS-B
Thu 03:32:12 PM 45.9190 -79.0910 200° South 444 511 36,000  Level FlightAware ADS-B
Thu 03:32:55 PM 45.8350 -79.1370 201° Southwest 443 510 36,000  Level FlightAware ADS-B
Thu 03:33:35 PM 45.7590 -79.1780 201° Southwest 444 511 36,000  Level FlightAware ADS-B
Thu 03:34:16 PM 45.6810 -79.2190 200° South 445 512 36,000  Level FlightAware ADS-B
Thu 03:34:55 PM 45.6050 -79.2600 201° Southwest 447 514 36,000  Level FlightAware ADS-B
Thu 03:35:37 PM 45.5220 -79.3040 200° South 448 516 36,000  Level FlightAware ADS-B
Thu 03:36:16 PM 45.4480 -79.3430 200° South 447 514 36,000  Level FlightAware ADS-B
Thu 03:37:00 PM 45.3640 -79.3870 200° South 444 511 36,000  Level FlightAware ADS-B
Thu 03:37:41 PM 45.2830 -79.4300 200° South 445 512 36,000  Level FlightAware ADS-B
Thu 03:38:37 PM 45.1790 -79.4840 200° South 449 517 36,000  Level FlightAware ADS-B
Thu 03:39:27 PM 45.0780 -79.5370 200° South 450 518 36,000  Level FlightAware ADS-B
Thu 03:40:04 PM 45.0080 -79.5740 200° South 450 518 36,000  Level FlightAware ADS-B
Thu 03:41:12 PM 44.8780 -79.6410 200° South 447 514 36,000  Level FlightAware ADS-B
Thu 03:41:57 PM 44.7920 -79.6850 200° South 444 511 36,000  Level FlightAware ADS-B
Thu 03:42:37 PM 44.7130 -79.7260 200° South 443 510 36,000  Level FlightAware ADS-B
Thu 03:43:22 PM 44.6260 -79.7710 200° South 442 509 36,000  Level FlightAware ADS-B
Thu 03:44:02 PM 44.5550 -79.8170 205° Southwest 440 506 36,000  Level FlightAware ADS-B
Thu 03:44:47 PM 44.4790 -79.8850 213° Southwest 439 505 36,000  Level FlightAware ADS-B
Thu 03:45:27 PM 44.4120 -79.9460 213° Southwest 440 506 36,000  Level FlightAware ADS-B
Thu 03:46:07 PM 44.3440 -80.0080 213° Southwest 441 507 36,000  Level FlightAware ADS-B
Thu 03:46:47 PM 44.2710 -80.0730 213° Southwest 442 509 36,000  Level FlightAware ADS-B
Thu 03:47:32 PM 44.1960 -80.1410 213° Southwest 443 510 36,000  Level FlightAware ADS-B
Thu 03:48:12 PM 44.1250 -80.2030 212° Southwest 444 511 36,000  Level FlightAware ADS-B
Thu 03:48:52 PM 44.0560 -80.2650 213° Southwest 445 512 36,000  Level FlightAware ADS-B
Thu 03:49:37 PM 43.9840 -80.3290 213° Southwest 445 512 36,000  Level FlightAware ADS-B
Thu 03:50:17 PM 43.9080 -80.3950 212° Southwest 444 511 36,000  Level FlightAware ADS-B
Thu 03:50:57 PM 43.8410 -80.4540 212° Southwest 443 510 36,000  Level FlightAware ADS-B
Thu 03:51:42 PM 43.7620 -80.5240 213° Southwest 444 511 36,000  Level FlightAware ADS-B
Thu 03:52:27 PM 43.6840 -80.5920 212° Southwest 444 511 36,000  Level FlightAware ADS-B
Thu 03:53:07 PM 43.6160 -80.6510 212° Southwest 444 511 36,000  Level FlightAware ADS-B
Thu 03:53:47 PM 43.5510 -80.7080 212° Southwest 444 511 36,000  Level FlightAware ADS-B
Thu 03:54:27 PM 43.4790 -80.7700 212° Southwest 444 511 36,000  Level FlightAware ADS-B
Thu 03:55:14 PM 43.3980 -80.8400 212° Southwest 444 511 36,000  Level FlightAware ADS-B
Thu 03:55:52 PM 43.3260 -80.9020 212° Southwest 444 511 36,000  Level FlightAware ADS-B
Thu 03:56:37 PM 43.2490 -80.9690 212° Southwest 446 513 36,000  Level FlightAware ADS-B
Thu 03:57:17 PM 43.1790 -81.0290 212° Southwest 448 516 36,000  Level FlightAware ADS-B
Thu 03:57:52 PM 43.1170 -81.0820 212° Southwest 449 517 36,000  Level FlightAware ADS-B
Thu 03:58:37 PM 43.0390 -81.1460 211° Southwest 452 520 36,000  Level FlightAware ADS-B
Thu 03:59:12 PM 42.9690 -81.1890 204° Southwest 455 524 36,000  Level FlightAware ADS-B
Thu 03:59:52 PM 42.8940 -81.2380 206° Southwest 455 524 36,000  Level FlightAware ADS-B
Thu 04:00:32 PM 42.8190 -81.2840 204° Southwest 454 522 36,000  Level FlightAware ADS-B
Thu 04:01:12 PM 42.7430 -81.3310 204° Southwest 455 524 36,000  Level FlightAware ADS-B
Thu 04:02:02 PM 42.6470 -81.3900 204° Southwest 457 526 36,000  Level FlightAware ADS-B
Thu 04:02:42 PM 42.5690 -81.4380 204° Southwest 460 529 36,000  Level FlightAware ADS-B
Thu 04:03:22 PM 42.4910 -81.4850 204° Southwest 461 531 36,000  Level FlightAware ADS-B
Thu 04:04:07 PM 42.4030 -81.5380 204° Southwest 462 532 36,000  Level FlightAware ADS-B
Thu 04:04:37 PM 42.3450 -81.5740 205° Southwest 465 535 36,000  Level FlightAware ADS-B
Thu 04:05:18 PM 42.2630 -81.6230 204° Southwest 465 535 36,000  Level FlightAware ADS-B
Thu 04:06:03 PM 42.1740 -81.6770 204° Southwest 465 535 36,000  Level FlightAware ADS-B
Thu 04:06:35 PM 42.1090 -81.7160 204° Southwest 465 535 36,000  Level FlightAware ADS-B
Thu 04:07:20 PM 42.0180 -81.7710 204° Southwest 467 537 36,000  Level FlightAware ADS-B
Thu 04:07:59 PM 41.9420 -81.8160 204° Southwest 469 540 36,000  Level FlightAware ADS-B
Thu 04:08:38 PM 41.8620 -81.8640 204° Southwest 470 541 36,000  Level FlightAware ADS-B
Thu 04:09:23 PM 41.7760 -81.9150 204° Southwest 470 541 36,000  Level FlightAware ADS-B
Thu 04:10:03 PM 41.6970 -81.9620 204° Southwest 470 541 36,000  Level FlightAware ADS-B
Thu 04:10:47 PM 41.6140 -82.0110 204° Southwest 472 543 36,000  Level FlightAware ADS-B
Thu 04:11:25 PM 41.5320 -82.0590 204° Southwest 473 544 36,000  Level FlightAware ADS-B
Thu 04:12:06 PM 41.4540 -82.1060 204° Southwest 473 544 36,000  Level FlightAware ADS-B
Thu 04:12:51 PM 41.3580 -82.1590 203° Southwest 476 548 36,000  Level FlightAware ADS-B
Thu 04:13:27 PM 41.2810 -82.1870 195° South 480 552 36,000  Level FlightAware ADS-B
Thu 04:14:08 PM 41.1930 -82.2210 196° South 479 551 36,000  Level FlightAware ADS-B
Thu 04:14:49 PM 41.1050 -82.2530 195° South 482 555 36,000  Level FlightAware ADS-B
Thu 04:15:32 PM 41.0140 -82.2850 195° South 481 554 36,000  Level FlightAware ADS-B
Thu 04:16:12 PM 40.9270 -82.3160 195° South 481 554 36,000  Level FlightAware ADS-B
Thu 04:16:55 PM 40.8330 -82.3500 195° South 481 554 36,000  Level FlightAware ADS-B
Thu 04:17:40 PM 40.7380 -82.3830 195° South 483 556 36,000  Level FlightAware ADS-B
Thu 04:18:17 PM 40.6600 -82.4110 195° South 484 557 36,000  Level FlightAware ADS-B
Thu 04:18:57 PM 40.5700 -82.4420 195° South 485 558 36,000  Level FlightAware ADS-B
Thu 04:19:38 PM 40.4840 -82.4730 195° South 485 558 36,000  Level FlightAware ADS-B
Thu 04:20:13 PM 40.4070 -82.4990 194° South 486 559 36,000  Level FlightAware ADS-B
Thu 04:21:02 PM 40.3030 -82.5360 195° South 487 560 36,000  Level FlightAware ADS-B
Thu 04:21:41 PM 40.2150 -82.5660 195° South 488 562 36,000  Level FlightAware ADS-B
Thu 04:22:24 PM 40.1180 -82.5880 190° South 494 568 36,000  Level FlightAware ADS-B
Thu 04:23:08 PM 40.0180 -82.5960 184° South 497 572 36,000  Level FlightAware ADS-B
Thu 04:23:51 PM 39.9180 -82.6040 184° South 499 574 36,000  Level FlightAware ADS-B
Thu 04:24:24 PM 39.8430 -82.6090 183° South 501 577 36,000  Level FlightAware ADS-B
Thu 04:25:07 PM 39.7410 -82.6160 183° South 501 577 36,000  Level FlightAware ADS-B
Thu 04:25:48 PM 39.6520 -82.6220 183° South 502 578 36,000  Level FlightAware ADS-B
Thu 04:26:31 PM 39.5470 -82.6290 183° South 501 577 36,000  Level FlightAware ADS-B
Thu 04:27:11 PM 39.4550 -82.6360 183° South 502 578 36,000  Level FlightAware ADS-B
Thu 04:27:55 PM 39.3520 -82.6420 183° South 502 578 36,000  Level FlightAware ADS-B
Thu 04:28:37 PM 39.2550 -82.6490 183° South 502 578 36,000  Level FlightAware ADS-B
Thu 04:29:14 PM 39.1720 -82.6540 183° South 503 579 36,000  Level FlightAware ADS-B
Thu 04:29:56 PM 39.0710 -82.6610 183° South 505 581 36,000  Level FlightAware ADS-B
Thu 04:30:35 PM 38.9790 -82.6670 183° South 506 582 36,000  Level FlightAware ADS-B
Thu 04:31:13 PM 38.8910 -82.6730 183° South 509 586 36,000  Level FlightAware ADS-B
Thu 04:32:00 PM 38.7800 -82.6800 183° South 511 588 36,000  Level FlightAware ADS-B
Thu 04:32:43 PM 38.6810 -82.6870 183° South 511 588 36,000  Level FlightAware ADS-B
Thu 04:33:24 PM 38.5830 -82.6930 183° South 513 590 36,000  Level FlightAware ADS-B
Thu 04:34:07 PM 38.4800 -82.7000 183° South 515 593 36,000  Level FlightAware ADS-B
Thu 04:34:48 PM 38.3800 -82.7060 183° South 515 593 36,000  Level FlightAware ADS-B
Thu 04:35:30 PM 38.2810 -82.7130 183° South 516 594 36,000  Level FlightAware ADS-B
Thu 04:36:13 PM 38.1770 -82.7200 183° South 517 595 36,000  Level FlightAware ADS-B
Thu 04:36:35 PM 38.1256 -82.7229 183° South 518 596 36,000  Level FlightAware ADS-B
Thu 04:37:06 PM 38.0516 -82.7277 183° South 518 596 36,000  Level FlightAware ADS-B
Thu 04:37:37 PM 37.9760 -82.7330 183° South 518 596 36,000  Level FlightAware ADS-B
Thu 04:37:53 PM 37.9376 -82.7350 182° South 519 597 36,000  Level FlightAware ADS-B
Thu 04:38:41 PM 37.8241 -82.7422 183° South 519 597 36,000  Level FlightAware ADS-B
Thu 04:39:09 PM 37.7563 -82.7484 184° South 517 595 36,000  Level FlightAware ADS-B
Thu 04:39:23 PM 37.7242 -82.7549 189° South 514 592 36,000  Level FlightAware ADS-B
Thu 04:40:04 PM 37.6300 -82.7895 196° South 512 589 36,000  Level FlightAware ADS-B
Thu 04:40:45 PM 37.5447 -82.8388 205° Southwest 498 573 36,000  Level FlightAware ADS-B
Thu 04:41:16 PM 37.4820 -82.8807 208° Southwest 497 572 36,000  Level FlightAware ADS-B
Thu 04:41:57 PM 37.3989 -82.9353 208° Southwest 497 572 36,000  Level FlightAware ADS-B
Thu 04:42:45 PM 37.3002 -83.0001 208° Southwest 496 571 36,000  Level FlightAware ADS-B
Thu 04:43:15 PM 37.2389 -83.0401 207° Southwest 496 571 36,000  Level FlightAware ADS-B
Thu 04:43:46 PM 37.1769 -83.0806 207° Southwest 495 570 36,000  Level FlightAware ADS-B
Thu 04:44:22 PM 37.1033 -83.1286 207° Southwest 495 570 36,000  Level FlightAware ADS-B
Thu 04:44:54 PM 37.0392 -83.1702 207° Southwest 494 568 36,000  Level FlightAware ADS-B
Thu 04:45:26 PM 36.9735 -83.2130 207° Southwest 495 570 36,000  Level FlightAware ADS-B
Thu 04:45:57 PM 36.9105 -83.2537 207° Southwest 496 571 36,000  Level FlightAware ADS-B
Thu 04:46:38 PM 36.8270 -83.3077 207° Southwest 496 571 36,000  Level FlightAware ADS-B
Thu 04:47:08 PM 36.7652 -83.3475 207° Southwest 496 571 36,000  Level FlightAware ADS-B
Thu 04:47:48 PM 36.6837 -83.4001 207° Southwest 498 573 36,000 167 Level FlightAware ADS-B
Thu 04:48:20 PM 36.6185 -83.4419 207° Southwest 497 572 36,200 656 Climbing FlightAware ADS-B
Thu 04:48:52 PM 36.5546 -83.4829 207° Southwest 490 564 36,700 774 Climbing FlightAware ADS-B
Thu 04:49:22 PM 36.4926 -83.5226 207° Southwest 488 562 37,000 295 Climbing FlightAware ADS-B
Thu 04:49:53 PM 36.4313 -83.5617 207° Southwest 489 563 37,000  Level FlightAware ADS-B
Thu 04:50:23 PM 36.3711 -83.6001 207° Southwest 488 562 37,000  Level FlightAware ADS-B
Thu 04:50:53 PM 36.3100 -83.6389 207° Southwest 486 559 37,000  Level FlightAware ADS-B
Thu 04:51:24 PM 36.2482 -83.6782 207° Southwest 486 559 37,000  Level FlightAware ADS-B
Thu 04:51:55 PM 36.1869 -83.7171 207° Southwest 485 558 37,000  Level FlightAware ADS-B
Thu 04:52:26 PM 36.1253 -83.7560 207° Southwest 487 560 37,000  Level FlightAware ADS-B
Thu 04:52:57 PM 36.0630 -83.7954 207° Southwest 487 560 37,000  Level FlightAware ADS-B
Thu 04:53:28 PM 35.9996 -83.8354 207° Southwest 487 560 37,000  Level FlightAware ADS-B
Thu 04:53:41 PM 35.9742 -83.8510 206° Southwest 490 564 37,000  Level FlightAware ADS-B
Thu 04:54:00 PM 35.9346 -83.8713 203° Southwest 495 570 37,000  Level FlightAware ADS-B
Thu 04:54:28 PM 35.8728 -83.8961 198° South 501 577 37,000  Level FlightAware ADS-B
Thu 04:54:51 PM 35.8208 -83.9121 194° South 505 581 37,000  Level FlightAware ADS-B
Thu 04:55:22 PM 35.7491 -83.9300 191° South 503 579 37,000  Level FlightAware ADS-B
Thu 04:55:53 PM 35.6806 -83.9485 192° South 500 575 37,000  Level FlightAware ADS-B
Thu 04:56:25 PM 35.6077 -83.9669 192° South 500 575 37,000  Level FlightAware ADS-B
Thu 04:57:00 PM 35.5285 -83.9863 191° South 499 574 37,000  Level FlightAware ADS-B
Thu 04:57:35 PM 35.4492 -84.0054 191° South 499 574 37,000  Level FlightAware ADS-B
Thu 04:58:05 PM 35.3807 -84.0219 191° South 497 572 37,000  Level FlightAware ADS-B
Thu 04:58:39 PM 35.3070 -84.0400 191° South 497 572 37,000  Level FlightAware ADS-B
Thu 04:58:52 PM 35.2757 -84.0472 191° South 498 573 37,000  Level FlightAware ADS-B
Thu 04:59:22 PM 35.2077 -84.0635 191° South 497 572 37,000  Level FlightAware ADS-B
Thu 04:59:53 PM 35.1396 -84.0799 191° South 498 573 37,000  Level FlightAware ADS-B
Thu 05:00:23 PM 35.0683 -84.0969 191° South 497 572 37,000  Level FlightAware ADS-B
Thu 05:00:54 PM 34.9998 -84.1133 191° South 498 573 37,000  Level FlightAware ADS-B
Thu 05:01:25 PM 34.9300 -84.1300 191° South 497 572 37,000  Level FlightAware ADS-B
Thu 05:01:55 PM 34.8613 -84.1464 191° South 496 571 37,000  Level FlightAware ADS-B
Thu 05:02:26 PM 34.7922 -84.1627 191° South 494 568 37,000  Level FlightAware ADS-B
Thu 05:02:58 PM 34.7195 -84.1800 191° South 494 568 37,000  Level FlightAware ADS-B
Thu 05:03:31 PM 34.6480 -84.1970 191° South 495 570 37,000  Level FlightAware ADS-B
Thu 05:03:59 PM 34.5830 -84.2123 191° South 495 570 37,000  Level FlightAware ADS-B
Thu 05:04:31 PM 34.5109 -84.2294 191° South 501 577 37,000  Level FlightAware ADS-B
Thu 05:05:03 PM 34.4367 -84.2469 191° South 504 580 37,000  Level FlightAware ADS-B
Thu 05:05:34 PM 34.3658 -84.2635 191° South 505 581 37,000  Level FlightAware ADS-B
Thu 05:06:09 PM 34.2845 -84.2826 191° South 505 581 37,000  Level FlightAware ADS-B
Thu 05:06:57 PM 34.1760 -84.3080 191° South 504 580 37,000  Level FlightAware ADS-B
Thu 05:07:43 PM 34.0700 -84.3330 191° South 503 579 37,000  Level FlightAware ADS-B
Thu 05:08:23 PM 33.9780 -84.3540 191° South 501 577 37,000  Level FlightAware ADS-B
Thu 05:08:51 PM 33.9153 -84.3687 191° South 500 575 37,000  Level FlightAware ADS-B
Thu 05:09:24 PM 33.8407 -84.3860 191° South 500 575 37,000  Level FlightAware ADS-B
Thu 05:09:54 PM 33.7709 -84.4022 191° South 500 575 37,000  Level FlightAware ADS-B
Thu 05:10:36 PM 33.6771 -84.4235 191° South 500 575 37,000  Level FlightAware ADS-B
Thu 05:11:06 PM 33.6070 -84.4316 185° South 504 580 37,000  Level FlightAware ADS-B
Thu 05:11:13 PM 33.5897 -84.4324 182° South 504 580 37,000  Level FlightAware ADS-B
Thu 05:11:49 PM 33.5075 -84.4314 179° South 503 579 37,000  Level FlightAware ADS-B
Thu 05:12:19 PM 33.4371 -84.4306 179° South 503 579 37,000  Level FlightAware ADS-B
Thu 05:12:50 PM 33.3656 -84.4296 179° South 503 579 37,000  Level FlightAware ADS-B
Thu 05:13:24 PM 33.2858 -84.4280 179° South 503 579 37,000  Level FlightAware ADS-B
Thu 05:14:01 PM 33.1995 -84.4262 179° South 503 579 37,000  Level FlightAware ADS-B
Thu 05:14:43 PM 33.1050 -84.4240 179° South 497 572 37,000  Level FlightAware ADS-B
Thu 05:15:19 PM 33.0220 -84.4230 179° South 495 570 37,000  Level FlightAware ADS-B
Thu 05:16:01 PM 32.9240 -84.4210 179° South 495 570 37,000  Level FlightAware ADS-B
Thu 05:16:39 PM 32.8380 -84.4190 179° South 496 571 37,000  Level FlightAware ADS-B
Thu 05:17:21 PM 32.7430 -84.4170 179° South 498 573 37,000  Level FlightAware ADS-B
Thu 05:18:05 PM 32.6400 -84.4150 179° South 499 574 37,000  Level FlightAware ADS-B
Thu 05:18:45 PM 32.5490 -84.4130 179° South 503 579 37,000  Level FlightAware ADS-B
Thu 05:19:29 PM 32.4440 -84.4110 179° South 504 580 37,000  Level FlightAware ADS-B
Thu 05:20:11 PM 32.3460 -84.4090 179° South 505 581 37,000  Level FlightAware ADS-B
Thu 05:20:47 PM 32.2610 -84.4070 179° South 507 583 37,000  Level FlightAware ADS-B
Thu 05:21:27 PM 32.1680 -84.4050 179° South 505 581 37,000  Level FlightAware ADS-B
Thu 05:22:12 PM 32.0730 -84.4030 179° South 506 582 37,000  Level FlightAware ADS-B
Thu 05:23:22 PM 31.9050 -84.4025 179° South 506 582 37,000  Level Jacksonville Center
Thu 05:29:11 PM 31.0890 -84.3840 179° South 488 562 37,000  Level FlightAware ADS-B
Thu 05:29:47 PM 31.0160 -84.3830 179° South 483 556 37,000  Level FlightAware ADS-B
Thu 05:30:34 PM 30.9060 -84.3810 179° South 483 556 37,000  Level FlightAware ADS-B
Thu 05:31:12 PM 30.8230 -84.3790 179° South 480 552 37,000  Level FlightAware ADS-B
Thu 05:32:08 PM 30.7090 -84.3770 179° South 477 549 37,000  Level FlightAware ADS-B
Thu 05:32:53 PM 30.6050 -84.3160 153° Southeast 486 559 37,000  Level FlightAware ADS-B
Thu 05:33:33 PM 30.5290 -84.2770 156° South 486 559 37,000  Level FlightAware ADS-B
Thu 05:34:13 PM 30.4430 -84.2350 157° South 485 558 37,000  Level FlightAware ADS-B
Thu 05:34:58 PM 30.3480 -84.1870 156° South 486 559 37,000  Level FlightAware ADS-B
Thu 05:35:43 PM 30.2530 -84.1400 157° South 486 559 37,000  Level FlightAware ADS-B
Thu 05:36:23 PM 30.1780 -84.1020 156° South 486 559 37,000  Level FlightAware ADS-B
Thu 05:36:54 PM 30.1100 -84.0690 157° South 476 548 37,000  Level FlightAware ADS-B
Thu 05:37:54 PM 29.9880 -84.0080 157° South 478 550 37,000  Level FlightAware ADS-B
Thu 05:38:29 PM 29.9140 -83.9720 157° South 487 560 37,000  Level FlightAware ADS-B
Thu 05:39:09 PM 29.8310 -83.9310 157° South 487 560 37,000 565 Level FlightAware ADS-B
Thu 05:39:54 PM 29.7380 -83.8850 157° South 473 544 37,800 1,125 Climbing FlightAware ADS-B
Thu 05:40:29 PM 29.6670 -83.8500 157° South 472 543 38,500 900 Climbing FlightAware ADS-B
Thu 05:41:14 PM 29.5760 -83.8050 157° South 469 540 39,000 333 Climbing FlightAware ADS-B
Thu 05:41:59 PM 29.4860 -83.7610 157° South 458 527 39,000  Level FlightAware ADS-B
Thu 05:42:38 PM 29.4080 -83.7230 157° South 468 539 39,000  Level FlightAware ADS-B
Thu 05:43:19 PM 29.3280 -83.6840 157° South 459 528 39,000  Level FlightAware ADS-B
Thu 05:43:59 PM 29.2490 -83.6450 157° South 458 527 39,000  Level FlightAware ADS-B
Thu 05:44:39 PM 29.1700 -83.6070 157° South 458 527 39,000  Level FlightAware ADS-B
Thu 05:45:19 PM 29.0900 -83.5680 157° South 459 528 39,000  Level FlightAware ADS-B
Thu 05:46:04 PM 29.0010 -83.5250 157° South 469 540 39,000  Level FlightAware ADS-B
Thu 05:46:44 PM 28.9220 -83.4870 157° South 470 541 39,000  Level FlightAware ADS-B
Thu 05:47:44 PM 28.7990 -83.4270 157° South 471 542 39,000  Level FlightAware ADS-B
Thu 05:48:25 PM 28.7180 -83.3880 157° South 472 543 39,000  Level FlightAware ADS-B
Thu 05:49:04 PM 28.6380 -83.3500 157° South 471 542 39,000  Level FlightAware ADS-B
Thu 05:49:48 PM 28.5480 -83.3070 157° South 471 542 39,000  Level FlightAware ADS-B
Thu 05:50:29 PM 28.4680 -83.2680 157° South 473 544 39,000  Level FlightAware ADS-B
Thu 05:51:14 PM 28.3750 -83.2240 157° South 474 545 39,000  Level FlightAware ADS-B
Thu 05:51:55 PM 28.2950 -83.1860 157° South 469 540 39,000  Level FlightAware ADS-B
Thu 05:52:34 PM 28.2140 -83.1470 157° South 469 540 39,000  Level FlightAware ADS-B
Thu 05:53:19 PM 28.1230 -83.1030 157° South 469 540 39,000  Level FlightAware ADS-B
Thu 05:53:59 PM 28.0410 -83.0660 158° South 474 545 39,000  Level FlightAware ADS-B
Thu 05:54:39 PM 27.9550 -83.0430 167° South 473 544 39,000  Level FlightAware ADS-B
Thu 05:55:19 PM 27.8700 -83.0250 169° South 468 539 39,000  Level FlightAware ADS-B
Thu 05:55:59 PM 27.7860 -82.9880 159° South 471 542 39,000  Level FlightAware ADS-B
Thu 05:56:38 PM 27.7090 -82.9400 151° Southeast 479 551 39,000  Level FlightAware ADS-B
Thu 05:57:19 PM 27.6320 -82.8910 151° Southeast 478 550 39,000  Level FlightAware ADS-B
Thu 05:57:59 PM 27.5550 -82.8440 152° Southeast 478 550 39,000  Level FlightAware ADS-B
Thu 05:58:39 PM 27.4780 -82.7970 152° Southeast 477 549 39,000  Level FlightAware ADS-B
Thu 05:59:19 PM 27.3950 -82.7590 158° South 469 540 39,000  Level FlightAware ADS-B
Thu 06:00:04 PM 27.3030 -82.7160 157° South 467 537 39,000  Level FlightAware ADS-B
Thu 06:00:44 PM 27.2220 -82.6780 157° South 468 539 39,000  Level FlightAware ADS-B
Thu 06:01:24 PM 27.1400 -82.6400 158° South 473 544 39,000  Level FlightAware ADS-B
Thu 06:02:09 PM 27.0490 -82.5970 157° South 472 543 39,000  Level FlightAware ADS-B
Thu 06:02:44 PM 26.9790 -82.5650 158° South 472 543 39,000  Level FlightAware ADS-B
Thu 06:03:23 PM 26.9030 -82.5300 158° South 474 545 39,000  Level FlightAware ADS-B
Thu 06:04:12 PM 26.8060 -82.4840 157° South 476 548 39,000  Level FlightAware ADS-B
Thu 06:05:08 PM 26.8690 -82.5140 337° Northwest 476 548 39,000  Level FlightAware ADS-B
Thu 06:05:58 PM 26.7800 -82.4720 157° South 476 548 39,000  Level FlightAware ADS-B
Thu 06:06:35 PM 26.7130 -82.4420 158° South 479 551 39,000  Level FlightAware ADS-B
Thu 06:07:15 PM 26.6440 -82.4090 157° South 479 551 39,000  Level FlightAware ADS-B
Thu 06:08:03 PM 26.5740 -82.3770 158° South 477 549 39,000  Level FlightAware ADS-B
Thu 06:08:38 PM 26.2470 -82.2930 167° South 465 535 39,000  Level FlightAware ADS-B
Thu 06:09:19 PM 26.1640 -82.3010 185° South 471 542 39,000  Level FlightAware ADS-B
Thu 06:10:03 PM 26.0850 -82.3090 185° South 471 542 39,000  Level FlightAware ADS-B
Thu 06:10:39 PM 25.9860 -82.3200 186° South 470 541 39,000  Level FlightAware ADS-B
Thu 06:11:29 PM 25.8800 -82.3300 185° South 470 541 39,000  Level FlightAware ADS-B
Thu 06:12:13 PM 25.7810 -82.3400 185° South 469 540 39,000  Level FlightAware ADS-B
Thu 06:12:54 PM 25.6920 -82.3490 185° South 468 539 39,000  Level FlightAware ADS-B
Thu 06:13:49 PM 25.5880 -82.3600 185° South 468 539 39,000  Level FlightAware ADS-B
Thu 06:14:30 PM 25.4950 -82.3690 185° South 469 540 39,000 -383 Level FlightAware ADS-B
Thu 06:15:14 PM 25.3960 -82.3790 185° South 38,600 -540 Descending FlightAware ADS-B
Thu 06:16:10 PM 25.2800 -82.3910 185° South 468 539 38,100 -326 Descending FlightAware ADS-B
Thu 06:16:46 PM 25.2140 -82.3970 185° South 468 539 38,100 -963 Level FlightAware ADS-B
Thu 06:17:31 PM 25.1050 -82.4090 186° South 485 558 36,800 -1,489 Descending FlightAware ADS-B
Thu 06:18:18 PM 24.9810 -82.4210 185° South 35,500 -1,364 Descending FlightAware ADS-B
Thu 06:18:59 PM 24.8940 -82.4300 185° South 467 537 34,800 -1,111 Descending FlightAware ADS-B
Thu 06:19:39 PM 24.8070 -82.4390 185° South 466 536 34,000 -1,425 Descending FlightAware ADS-B
Thu 06:20:19 PM 24.7210 -82.4470 185° South 468 539 32,900 -1,125 Descending FlightAware ADS-B
Thu 06:21:15 PM 24.6230 -82.4570 185° South 465 535 32,200 -1,434 Descending FlightAware ADS-B
Thu 06:22:12 PM 24.4960 -82.4690 185° South 453 521 30,200 -1,277 Descending FlightAware ADS-B
Thu 06:22:49 PM 24.4310 -82.4760 186° South 453 521 30,200  Level FlightAware ADS-B
Thu 06:23:49 PM 24.3240 -82.4860 185° South 453 521 30,200  Level FlightAware ADS-B
Thu 06:24:25 PM 24.2600 -82.4920 185° South 453 521 30,200  Level FlightAware ADS-B
Thu 06:25:13 PM 24.1750 -82.5000 185° South 453 521 30,200  Level FlightAware ADS-B
Thu 06:25:37 PM 24.1320 -82.5040 185° South 453 521 30,200  Level FlightAware ADS-B
Thu 06:26:26 PM 24.0450 -82.5130 185° South 453 521 30,200  Level FlightAware ADS-B
Thu 06:27:03 PM 23.9800 -82.5190 185° South 453 521 30,200  Level FlightAware ADS-B
Thu 06:27:51 PM 23.8950 -82.5270 185° South 453 521 30,200  Level FlightAware ADS-B
Thu 06:28:27 PM 23.8310 -82.5330 185° South 453 521 30,200  Level FlightAware ADS-B
Thu 06:29:16 PM 23.7440 -82.5410 185° South 453 521 30,200  Level FlightAware ADS-B
Thu 06:29:51 PM 23.6820 -82.5470 185° South 453 521 30,200  Level FlightAware ADS-B
Thu 06:30:39 PM 23.5960 -82.5560 185° South 453 521 30,200  Level FlightAware ADS-B
Thu 06:31:16 PM 23.5310 -82.5620 185° South 453 521 30,200  Level FlightAware ADS-B
Thu 06:34:00 PM 23.2050 -82.4698 180° South  Level Estimated
Thu 06:35:00 PM 23.0880 -82.4076 170° South  Level FlightAware Approximate
Thu 06:36:00 PM 22.9891 -82.4091 180° South  Level Estimated
Thu 06:37:00 PM 22.9891 -82.4091 180° South  Level Estimated
Thu 06:38:00 PM 22.9891 -82.4091 180° South  Level Estimated
Thu 06:39:00 PM 22.9891 -82.4091 180° South  Level Estimated
Thu 06:40:00 PM 22.9891 -82.4091 180° South  Level Estimated
Thu 06:41:00 PM 22.9891 -82.4091 180° South  Level Estimated
Thu 06:42:00 PM 22.9891 -82.4091 180° South  Level Estimated
Thu 06:43:00 PM 22.9891 -82.4091 180° South  Level Estimated
Thu 06:44:00 PM 22.9891 -82.4091 180° South  Level Estimated
Thu 06:45:00 PM 22.9891 -82.4091 180° South  Level Estimated
Thu 06:46:00 PM 22.9891 -82.4091 180° South  Level Estimated
Thu 06:47:00 PM 22.9891 -82.4091 180° South  Level Estimated
Thu 06:48:00 PM 22.9891 -82.4091 180° South  Level Estimated
Thu 06:49:00 PM 22.9891 -82.4091 180° South  Level Estimated
Thu 06:50:00 PM 22.9891 -82.4091 180° South  Level Estimated
Thu 06:51:00 PM 22.9891 -82.4091 180° South  Level Estimated
Thu 06:52:00 PM 22.9891 -82.4091 180° South  Level Estimated
Thu 06:53:00 PM 22.9891 -82.4091 180° South  Level Estimated
Thu 06:54:00 PM 22.9891 -82.4091 180° South  Level Estimated
Thu 06:55:00 PM 22.9891 -82.4091 180° South  Level Estimated

Login

Don't have an account? Register now (free) for customized features, flight alerts, and more!